UAE59 OMDB-EDDH
Flight info
| Callsign | UAE59 |
|---|---|
| Flight time | 7h 59m |
| Altitude | 36000 |
| Route | ANVIX L223 TARDI N629 BOTAM Y855 LAKLU Q204 NALKI G652 TOKRA DCT ALROK DCT BOSOB DCT ITRUX Y511 NALBA/N0494F380 Y511 PMA Z712 WEJ L677 GESON Q777 RASDA DCT OTHON DCT VAXOS DCT RDS UL609 MES/N0485F400 DCT EVIVI L863 OKANA DCT BABIT DCT ARSIN DCT DITIS DCT KILNU DCT ABGUS DCT DIRBO/N0458F230 T902 RARUP RARUP3S |
| Aircraft | A359/H-SDE2E3GHIJ3J4J5LM1ORWXY/LB1D1 |
Departure
| Time | 2026-04-22 12:37 |
|---|---|
| Airport | Dubai International Airport (OMDB) |
Arrival
| Time | 2026-04-22 20:37 |
|---|---|
| Airport | Hamburg Helmut Schmidt Airport (EDDH) |
| Time | Latitude | Longitude | Altitude | Speed | Heading |
|---|---|---|---|---|---|
| 2026-04-22 11:47 | 25.24968 | 55.36150 | 28 ft | 0 kts | 211° |
| 2026-04-22 12:23 | 25.24979 | 55.36157 | 28 ft | 4 kts | 211° |
| 2026-04-22 12:23 | 25.25002 | 55.36172 | 28 ft | 4 kts | 211° |
| 2026-04-22 12:23 | 25.25021 | 55.36185 | 28 ft | 4 kts | 220° |
| 2026-04-22 12:24 | 25.25035 | 55.36207 | 28 ft | 4 kts | 267° |
| 2026-04-22 12:24 | 25.25030 | 55.36235 | 28 ft | 4 kts | 298° |
| 2026-04-22 12:24 | 25.25019 | 55.36255 | 28 ft | 3 kts | 302° |
| 2026-04-22 12:28 | 25.25045 | 55.36209 | 28 ft | 14 kts | 302° |
| 2026-04-22 12:28 | 25.25108 | 55.36097 | 28 ft | 18 kts | 302° |
| 2026-04-22 12:28 | 25.25175 | 55.35978 | 28 ft | 18 kts | 302° |
| 2026-04-22 12:28 | 25.25244 | 55.35857 | 28 ft | 19 kts | 302° |
| 2026-04-22 12:29 | 25.25313 | 55.35734 | 28 ft | 19 kts | 302° |
| 2026-04-22 12:29 | 25.25383 | 55.35610 | 28 ft | 19 kts | 301° |
| 2026-04-22 12:29 | 25.25453 | 55.35483 | 28 ft | 19 kts | 301° |
| 2026-04-22 12:29 | 25.25523 | 55.35357 | 28 ft | 19 kts | 302° |
| 2026-04-22 12:30 | 25.25679 | 55.35159 | 28 ft | 15 kts | 12° |
| 2026-04-22 12:30 | 25.25769 | 55.35214 | 28 ft | 15 kts | 31° |
| 2026-04-22 12:30 | 25.25859 | 55.35274 | 28 ft | 15 kts | 31° |
| 2026-04-22 12:31 | 25.25952 | 55.35337 | 28 ft | 16 kts | 32° |
| 2026-04-22 12:31 | 25.26009 | 55.35434 | 28 ft | 16 kts | 78° |
| 2026-04-22 12:31 | 25.25991 | 55.35557 | 28 ft | 18 kts | 118° |
| 2026-04-22 12:31 | 25.25920 | 55.35679 | 28 ft | 20 kts | 123° |
| 2026-04-22 12:32 | 25.25844 | 55.35814 | 28 ft | 22 kts | 122° |
| 2026-04-22 12:32 | 25.25671 | 55.36120 | 28 ft | 25 kts | 122° |
| 2026-04-22 12:32 | 25.25575 | 55.36292 | 28 ft | 27 kts | 122° |
| 2026-04-22 12:33 | 25.25474 | 55.36471 | 28 ft | 28 kts | 122° |
| 2026-04-22 12:33 | 25.25370 | 55.36656 | 28 ft | 28 kts | 122° |
| 2026-04-22 12:33 | 25.25268 | 55.36838 | 28 ft | 28 kts | 122° |
| 2026-04-22 12:33 | 25.25167 | 55.37018 | 28 ft | 27 kts | 122° |
| 2026-04-22 12:34 | 25.25067 | 55.37196 | 28 ft | 27 kts | 122° |
| 2026-04-22 12:34 | 25.24968 | 55.37372 | 28 ft | 27 kts | 122° |
| 2026-04-22 12:34 | 25.24870 | 55.37546 | 28 ft | 26 kts | 122° |
| 2026-04-22 12:34 | 25.24773 | 55.37718 | 28 ft | 26 kts | 122° |
| 2026-04-22 12:35 | 25.24682 | 55.37878 | 28 ft | 13 kts | 122° |
| 2026-04-22 12:35 | 25.24668 | 55.37956 | 28 ft | 9 kts | 72° |
| 2026-04-22 12:35 | 25.24714 | 55.37992 | 28 ft | 12 kts | 30° |
| 2026-04-22 12:35 | 25.24796 | 55.38016 | 28 ft | 12 kts | 335° |
| 2026-04-22 12:36 | 25.24848 | 55.37952 | 28 ft | 11 kts | 304° |
| 2026-04-22 12:36 | 25.24889 | 55.37875 | 28 ft | 15 kts | 302° |
| 2026-04-22 12:36 | 25.25045 | 55.37599 | 28 ft | 73 kts | 301° |
| 2026-04-22 12:36 | 25.25411 | 55.36938 | 28 ft | 127 kts | 301° |
| 2026-04-22 12:37 | 25.25960 | 55.35952 | 29 ft | 173 kts | 302° |
| 2026-04-22 12:37 | 25.26585 | 55.34820 | 584 ft | 171 kts | 301° |
| 2026-04-22 12:37 | 25.27207 | 55.33644 | 947 ft | 184 kts | 300° |
| 2026-04-22 12:37 | 25.27852 | 55.32385 | 1279 ft | 192 kts | 300° |
| 2026-04-22 12:38 | 25.28528 | 55.31089 | 1565 ft | 198 kts | 301° |
| 2026-04-22 12:38 | 25.29169 | 55.29704 | 1792 ft | 208 kts | 285° |
| 2026-04-22 12:38 | 25.29025 | 55.28124 | 2045 ft | 212 kts | 244° |
| 2026-04-22 12:38 | 25.28415 | 55.26624 | 2395 ft | 215 kts | 245° |
| 2026-04-22 12:39 | 25.27775 | 55.25110 | 2731 ft | 223 kts | 245° |
| 2026-04-22 12:39 | 25.26445 | 55.21853 | 3314 ft | 239 kts | 244° |
| 2026-04-22 12:39 | 25.25611 | 55.20245 | 3629 ft | 247 kts | 232° |
| 2026-04-22 12:40 | 25.24295 | 55.18972 | 3821 ft | 260 kts | 207° |
| 2026-04-22 12:40 | 25.22512 | 55.18580 | 4108 ft | 269 kts | 173° |
| 2026-04-22 12:40 | 25.20793 | 55.19354 | 4553 ft | 272 kts | 146° |
| 2026-04-22 12:40 | 25.19302 | 55.20664 | 4947 ft | 277 kts | 139° |
| 2026-04-22 12:41 | 25.17928 | 55.22171 | 5392 ft | 279 kts | 135° |
| 2026-04-22 12:41 | 25.16501 | 55.23631 | 5878 ft | 280 kts | 142° |
| 2026-04-22 12:41 | 25.15001 | 55.25022 | 6302 ft | 283 kts | 140° |
| 2026-04-22 12:41 | 25.13689 | 55.26664 | 6670 ft | 288 kts | 125° |
| 2026-04-22 12:42 | 25.12731 | 55.28611 | 6768 ft | 290 kts | 117° |
| 2026-04-22 12:42 | 25.11856 | 55.30622 | 6780 ft | 290 kts | 118° |
| 2026-04-22 12:42 | 25.10958 | 55.32621 | 6788 ft | 291 kts | 118° |
| 2026-04-22 12:42 | 25.10063 | 55.34621 | 6776 ft | 292 kts | 116° |
| 2026-04-22 12:43 | 25.09244 | 55.36673 | 6780 ft | 293 kts | 115° |
| 2026-04-22 12:43 | 25.08433 | 55.38729 | 6778 ft | 292 kts | 115° |
| 2026-04-22 12:43 | 25.07610 | 55.40777 | 6776 ft | 291 kts | 116° |
| 2026-04-22 12:43 | 25.06791 | 55.42822 | 6777 ft | 292 kts | 115° |
| 2026-04-22 12:44 | 25.06005 | 55.44888 | 6944 ft | 294 kts | 114° |
| 2026-04-22 12:44 | 25.05217 | 55.46977 | 7421 ft | 295 kts | 114° |
| 2026-04-22 12:44 | 25.04896 | 55.47823 | 7646 ft | 294 kts | 114° |
| 2026-04-22 12:44 | 25.04099 | 55.49906 | 8084 ft | 296 kts | 114° |
| 2026-04-22 12:45 | 25.03290 | 55.52009 | 8491 ft | 299 kts | 115° |
| 2026-04-22 12:45 | 25.02475 | 55.54127 | 8940 ft | 301 kts | 115° |
| 2026-04-22 12:45 | 25.01548 | 55.56196 | 9383 ft | 302 kts | 121° |
| 2026-04-22 12:45 | 25.00487 | 55.58198 | 9776 ft | 304 kts | 122° |
| 2026-04-22 12:46 | 24.99384 | 55.60227 | 10037 ft | 313 kts | 122° |
| 2026-04-22 12:46 | 24.98245 | 55.62324 | 10232 ft | 324 kts | 122° |
| 2026-04-22 12:46 | 24.97074 | 55.64483 | 10438 ft | 334 kts | 122° |
| 2026-04-22 12:46 | 24.95869 | 55.66710 | 10626 ft | 343 kts | 122° |
| 2026-04-22 12:47 | 24.94624 | 55.69003 | 10811 ft | 353 kts | 122° |
| 2026-04-22 12:47 | 24.93240 | 55.71273 | 10994 ft | 361 kts | 127° |
| 2026-04-22 12:47 | 24.91745 | 55.73541 | 11176 ft | 370 kts | 127° |
| 2026-04-22 12:47 | 24.90204 | 55.75858 | 11333 ft | 379 kts | 127° |
| 2026-04-22 12:48 | 24.88648 | 55.78198 | 11512 ft | 388 kts | 127° |
| 2026-04-22 12:48 | 24.87041 | 55.80617 | 11688 ft | 394 kts | 127° |
| 2026-04-22 12:48 | 24.85412 | 55.83072 | 11946 ft | 399 kts | 127° |
| 2026-04-22 12:48 | 24.83769 | 55.85548 | 12273 ft | 402 kts | 127° |
| 2026-04-22 12:49 | 24.82101 | 55.88027 | 12622 ft | 403 kts | 128° |
| 2026-04-22 12:49 | 24.80419 | 55.90504 | 12963 ft | 405 kts | 128° |
| 2026-04-22 12:49 | 24.78714 | 55.92982 | 13284 ft | 406 kts | 130° |
| 2026-04-22 12:49 | 24.76842 | 55.95304 | 13589 ft | 407 kts | 135° |
| 2026-04-22 12:50 | 24.74818 | 55.97500 | 13902 ft | 408 kts | 138° |
| 2026-04-22 12:50 | 24.72728 | 55.99625 | 14216 ft | 410 kts | 139° |
| 2026-04-22 12:50 | 24.70606 | 56.01738 | 14545 ft | 412 kts | 139° |
| 2026-04-22 12:50 | 24.68471 | 56.03864 | 14824 ft | 415 kts | 139° |
| 2026-04-22 12:51 | 24.66340 | 56.06012 | 15153 ft | 417 kts | 139° |
| 2026-04-22 12:51 | 24.64208 | 56.08180 | 15488 ft | 419 kts | 139° |
| 2026-04-22 12:51 | 24.62070 | 56.10367 | 15805 ft | 420 kts | 138° |
| 2026-04-22 12:51 | 24.59931 | 56.12564 | 16134 ft | 422 kts | 139° |
| 2026-04-22 12:52 | 24.57809 | 56.14805 | 16441 ft | 425 kts | 135° |
| 2026-04-22 12:52 | 24.55798 | 56.17195 | 16765 ft | 427 kts | 134° |
| 2026-04-22 12:52 | 24.53821 | 56.19639 | 17046 ft | 429 kts | 133° |
| 2026-04-22 12:52 | 24.51862 | 56.22116 | 17343 ft | 431 kts | 133° |
| 2026-04-22 12:53 | 24.49903 | 56.24617 | 17627 ft | 433 kts | 132° |
| 2026-04-22 12:53 | 24.47940 | 56.27131 | 17936 ft | 434 kts | 132° |
| 2026-04-22 12:53 | 24.45973 | 56.29650 | 18200 ft | 436 kts | 132° |
| 2026-04-22 12:53 | 24.43986 | 56.32185 | 18481 ft | 438 kts | 133° |
| 2026-04-22 12:54 | 24.41996 | 56.34720 | 18758 ft | 440 kts | 133° |
| 2026-04-22 12:54 | 24.39991 | 56.37272 | 19029 ft | 441 kts | 133° |
| 2026-04-22 12:54 | 24.37982 | 56.39823 | 19280 ft | 444 kts | 133° |
| 2026-04-22 12:54 | 24.35957 | 56.42392 | 19501 ft | 446 kts | 133° |
| 2026-04-22 12:55 | 24.33926 | 56.44967 | 19752 ft | 447 kts | 133° |
| 2026-04-22 12:55 | 24.31886 | 56.47552 | 19987 ft | 449 kts | 133° |
| 2026-04-22 12:55 | 24.29834 | 56.50151 | 20224 ft | 451 kts | 133° |
| 2026-04-22 12:55 | 24.27864 | 56.52773 | 20455 ft | 453 kts | 129° |
| 2026-04-22 12:56 | 24.25988 | 56.55555 | 20683 ft | 455 kts | 127° |
| 2026-04-22 12:56 | 24.24163 | 56.58404 | 20898 ft | 457 kts | 126° |
| 2026-04-22 12:56 | 24.22347 | 56.61266 | 21108 ft | 459 kts | 127° |
| 2026-04-22 12:56 | 24.20506 | 56.64139 | 21306 ft | 461 kts | 127° |
| 2026-04-22 12:57 | 24.18644 | 56.67003 | 21524 ft | 462 kts | 127° |
| 2026-04-22 12:57 | 24.16764 | 56.69862 | 21763 ft | 463 kts | 127° |
| 2026-04-22 12:57 | 24.14868 | 56.72720 | 21983 ft | 465 kts | 128° |
| 2026-04-22 12:57 | 24.12960 | 56.75586 | 22165 ft | 466 kts | 128° |
| 2026-04-22 12:58 | 24.11046 | 56.78453 | 22366 ft | 468 kts | 128° |
| 2026-04-22 12:58 | 24.09123 | 56.81333 | 22569 ft | 469 kts | 128° |
| 2026-04-22 12:58 | 24.07115 | 56.84141 | 22733 ft | 470 kts | 133° |
| 2026-04-22 12:58 | 24.04775 | 56.86636 | 22910 ft | 469 kts | 142° |
| 2026-04-22 12:59 | 24.02104 | 56.88660 | 23089 ft | 467 kts | 153° |
| 2026-04-22 12:59 | 23.99153 | 56.90117 | 23254 ft | 464 kts | 163° |
| 2026-04-22 12:59 | 23.96071 | 56.91162 | 23448 ft | 465 kts | 167° |
| 2026-04-22 12:59 | 23.92932 | 56.92057 | 23620 ft | 466 kts | 168° |
| 2026-04-22 13:00 | 23.89778 | 56.92879 | 23796 ft | 467 kts | 169° |
| 2026-04-22 13:00 | 23.86610 | 56.93681 | 23981 ft | 468 kts | 169° |
| 2026-04-22 13:00 | 23.83434 | 56.94489 | 24161 ft | 469 kts | 169° |
| 2026-04-22 13:00 | 23.80250 | 56.95313 | 24316 ft | 471 kts | 168° |
| 2026-04-22 13:01 | 23.77063 | 56.96152 | 24469 ft | 472 kts | 168° |
| 2026-04-22 13:01 | 23.73865 | 56.97002 | 24614 ft | 474 kts | 168° |
| 2026-04-22 13:01 | 23.70655 | 56.97859 | 24789 ft | 475 kts | 168° |
| 2026-04-22 13:01 | 23.67444 | 56.98721 | 24927 ft | 477 kts | 168° |
| 2026-04-22 13:02 | 23.64216 | 56.99587 | 25081 ft | 478 kts | 168° |
| 2026-04-22 13:02 | 23.60981 | 57.00454 | 25240 ft | 479 kts | 168° |
| 2026-04-22 13:02 | 23.57742 | 57.01320 | 25410 ft | 480 kts | 168° |
| 2026-04-22 13:02 | 23.54483 | 57.02191 | 25531 ft | 482 kts | 168° |
| 2026-04-22 13:03 | 23.51218 | 57.03063 | 25676 ft | 483 kts | 168° |
| 2026-04-22 13:03 | 23.47949 | 57.03937 | 25837 ft | 484 kts | 168° |
| 2026-04-22 13:03 | 23.44672 | 57.04813 | 25983 ft | 486 kts | 168° |
| 2026-04-22 13:03 | 23.41375 | 57.05614 | 26134 ft | 486 kts | 173° |
| 2026-04-22 13:04 | 23.38064 | 57.05994 | 26296 ft | 484 kts | 181° |
| 2026-04-22 13:04 | 23.34711 | 57.05846 | 26451 ft | 482 kts | 189° |
| 2026-04-22 13:04 | 23.31399 | 57.05277 | 26614 ft | 482 kts | 193° |
| 2026-04-22 13:04 | 23.28113 | 57.04569 | 26782 ft | 483 kts | 194° |
| 2026-04-22 13:05 | 23.24826 | 57.03787 | 26943 ft | 483 kts | 195° |
| 2026-04-22 13:05 | 23.22522 | 57.03222 | 27067 ft | 484 kts | 195° |
| 2026-04-22 13:05 | 23.19233 | 57.02413 | 27211 ft | 485 kts | 195° |
| 2026-04-22 13:05 | 23.15935 | 57.01609 | 27349 ft | 487 kts | 195° |
| 2026-04-22 13:06 | 23.12622 | 57.00813 | 27498 ft | 488 kts | 195° |
| 2026-04-22 13:06 | 23.09301 | 57.00023 | 27664 ft | 489 kts | 195° |
| 2026-04-22 13:06 | 23.05972 | 56.99237 | 27787 ft | 491 kts | 195° |
| 2026-04-22 13:06 | 23.02633 | 56.98452 | 27948 ft | 491 kts | 195° |
| 2026-04-22 13:07 | 22.99289 | 56.97668 | 28090 ft | 492 kts | 195° |
| 2026-04-22 13:07 | 22.95933 | 56.96885 | 28221 ft | 494 kts | 195° |
| 2026-04-22 13:07 | 22.92577 | 56.96095 | 28364 ft | 494 kts | 195° |
| 2026-04-22 13:07 | 22.89282 | 56.95048 | 28473 ft | 492 kts | 203° |
| 2026-04-22 13:08 | 22.86178 | 56.93521 | 28589 ft | 489 kts | 212° |
| 2026-04-22 13:08 | 22.83349 | 56.91490 | 28720 ft | 486 kts | 221° |
| 2026-04-22 13:08 | 22.80886 | 56.89001 | 28815 ft | 484 kts | 231° |
| 2026-04-22 13:08 | 22.78854 | 56.86111 | 28934 ft | 481 kts | 240° |
| 2026-04-22 13:09 | 22.77178 | 56.82978 | 29074 ft | 480 kts | 243° |
| 2026-04-22 13:09 | 22.75611 | 56.79786 | 29225 ft | 480 kts | 244° |
| 2026-04-22 13:09 | 22.74086 | 56.76561 | 29357 ft | 481 kts | 245° |
| 2026-04-22 13:09 | 22.72574 | 56.73334 | 29481 ft | 481 kts | 245° |
| 2026-04-22 13:10 | 22.71054 | 56.70100 | 29593 ft | 482 kts | 245° |
| 2026-04-22 13:10 | 22.69522 | 56.66869 | 29702 ft | 483 kts | 244° |
| 2026-04-22 13:10 | 22.67980 | 56.63644 | 29868 ft | 482 kts | 244° |
| 2026-04-22 13:10 | 22.66434 | 56.60429 | 30115 ft | 480 kts | 244° |
| 2026-04-22 13:11 | 22.64889 | 56.57228 | 30293 ft | 480 kts | 244° |
| 2026-04-22 13:11 | 22.63341 | 56.54024 | 30503 ft | 479 kts | 244° |
| 2026-04-22 13:11 | 22.61797 | 56.50833 | 30721 ft | 478 kts | 245° |
| 2026-04-22 13:11 | 22.60254 | 56.47646 | 30926 ft | 478 kts | 245° |
| 2026-04-22 13:12 | 22.58714 | 56.44465 | 31168 ft | 477 kts | 245° |
| 2026-04-22 13:12 | 22.57177 | 56.41293 | 31373 ft | 476 kts | 245° |
| 2026-04-22 13:12 | 22.55640 | 56.38121 | 31589 ft | 476 kts | 245° |
| 2026-04-22 13:12 | 22.54624 | 56.36025 | 31737 ft | 475 kts | 245° |
| 2026-04-22 13:13 | 22.53088 | 56.32861 | 31937 ft | 474 kts | 245° |
| 2026-04-22 13:13 | 22.51562 | 56.29712 | 32149 ft | 474 kts | 245° |
| 2026-04-22 13:13 | 22.50034 | 56.26554 | 32339 ft | 473 kts | 245° |
| 2026-04-22 13:13 | 22.48509 | 56.23409 | 32562 ft | 472 kts | 246° |
| 2026-04-22 13:14 | 22.46984 | 56.20266 | 32770 ft | 471 kts | 246° |
| 2026-04-22 13:14 | 22.45463 | 56.17133 | 32937 ft | 472 kts | 246° |
| 2026-04-22 13:14 | 22.43937 | 56.13993 | 33119 ft | 471 kts | 246° |
| 2026-04-22 13:14 | 22.42412 | 56.10858 | 33336 ft | 471 kts | 246° |
| 2026-04-22 13:15 | 22.40890 | 56.07731 | 33514 ft | 470 kts | 246° |
| 2026-04-22 13:15 | 22.39368 | 56.04604 | 33704 ft | 470 kts | 246° |
| 2026-04-22 13:15 | 22.37847 | 56.01482 | 33873 ft | 470 kts | 246° |
| 2026-04-22 13:15 | 22.36327 | 55.98362 | 34077 ft | 469 kts | 246° |
| 2026-04-22 13:16 | 22.34803 | 55.95258 | 34337 ft | 467 kts | 246° |
| 2026-04-22 13:16 | 22.33283 | 55.92168 | 34594 ft | 465 kts | 247° |
| 2026-04-22 13:16 | 22.31769 | 55.89091 | 34771 ft | 464 kts | 247° |
| 2026-04-22 13:16 | 22.30255 | 55.86016 | 34925 ft | 464 kts | 247° |
| 2026-04-22 13:17 | 22.28741 | 55.82940 | 35074 ft | 463 kts | 247° |
| 2026-04-22 13:17 | 22.27230 | 55.79872 | 35293 ft | 462 kts | 247° |
| 2026-04-22 13:17 | 22.25722 | 55.76812 | 35469 ft | 461 kts | 247° |
| 2026-04-22 13:17 | 22.24220 | 55.73753 | 35638 ft | 461 kts | 247° |
| 2026-04-22 13:18 | 22.22722 | 55.70698 | 35755 ft | 461 kts | 248° |
| 2026-04-22 13:18 | 22.19708 | 55.64547 | 35794 ft | 467 kts | 247° |
| 2026-04-22 13:19 | 22.16828 | 55.58294 | 35795 ft | 462 kts | 254° |
| 2026-04-22 13:19 | 22.15343 | 55.51710 | 35796 ft | 452 kts | 266° |
| 2026-04-22 13:20 | 22.14693 | 55.44971 | 35793 ft | 451 kts | 269° |
| 2026-04-22 13:20 | 22.14176 | 55.38233 | 35794 ft | 450 kts | 269° |
| 2026-04-22 13:21 | 22.13652 | 55.31505 | 35794 ft | 449 kts | 268° |
| 2026-04-22 13:21 | 22.13107 | 55.24802 | 35791 ft | 449 kts | 268° |
| 2026-04-22 13:22 | 22.12547 | 55.18092 | 35792 ft | 448 kts | 268° |
| 2026-04-22 13:22 | 22.11988 | 55.11413 | 35800 ft | 447 kts | 268° |
| 2026-04-22 13:23 | 22.11428 | 55.04739 | 35795 ft | 447 kts | 268° |
| 2026-04-22 13:23 | 22.10864 | 54.98073 | 35795 ft | 446 kts | 268° |
| 2026-04-22 13:24 | 22.10297 | 54.91431 | 35792 ft | 445 kts | 268° |
| 2026-04-22 13:24 | 22.09731 | 54.84777 | 35791 ft | 444 kts | 268° |
| 2026-04-22 13:25 | 22.09165 | 54.78146 | 35794 ft | 444 kts | 268° |
| 2026-04-22 13:25 | 22.08596 | 54.71528 | 35797 ft | 443 kts | 268° |
| 2026-04-22 13:26 | 22.08023 | 54.64927 | 35796 ft | 442 kts | 268° |
| 2026-04-22 13:26 | 22.07454 | 54.58385 | 35794 ft | 441 kts | 268° |
| 2026-04-22 13:27 | 22.06882 | 54.51807 | 35804 ft | 440 kts | 268° |
| 2026-04-22 13:27 | 22.06308 | 54.45244 | 35804 ft | 440 kts | 268° |
| 2026-04-22 13:28 | 22.05730 | 54.38689 | 35803 ft | 439 kts | 268° |
| 2026-04-22 13:28 | 22.05149 | 54.32126 | 35803 ft | 440 kts | 268° |
| 2026-04-22 13:29 | 22.04566 | 54.25570 | 35804 ft | 439 kts | 268° |
| 2026-04-22 13:29 | 22.03981 | 54.19028 | 35804 ft | 438 kts | 268° |
| 2026-04-22 13:30 | 22.03395 | 54.12484 | 35805 ft | 439 kts | 268° |
| 2026-04-22 13:30 | 22.02808 | 54.05943 | 35804 ft | 439 kts | 268° |
| 2026-04-22 13:31 | 22.02215 | 53.99395 | 35797 ft | 439 kts | 268° |
| 2026-04-22 13:31 | 22.01619 | 53.92855 | 35796 ft | 439 kts | 268° |
| 2026-04-22 13:32 | 22.01022 | 53.86306 | 35797 ft | 439 kts | 268° |
| 2026-04-22 13:32 | 22.00421 | 53.79766 | 35799 ft | 439 kts | 268° |
| 2026-04-22 13:33 | 21.99817 | 53.73220 | 35793 ft | 439 kts | 268° |
| 2026-04-22 13:33 | 21.99215 | 53.66715 | 35791 ft | 439 kts | 268° |
| 2026-04-22 13:34 | 21.98605 | 53.60171 | 35795 ft | 439 kts | 268° |
| 2026-04-22 13:34 | 21.97993 | 53.53632 | 35795 ft | 439 kts | 268° |
| 2026-04-22 13:35 | 21.97380 | 53.47085 | 35793 ft | 439 kts | 268° |
| 2026-04-22 13:35 | 21.96767 | 53.40544 | 35793 ft | 439 kts | 268° |
| 2026-04-22 13:36 | 21.96148 | 53.34003 | 35799 ft | 438 kts | 268° |
| 2026-04-22 13:36 | 21.95527 | 53.27476 | 35793 ft | 438 kts | 268° |
| 2026-04-22 13:37 | 21.94904 | 53.20953 | 35794 ft | 438 kts | 267° |
| 2026-04-22 13:37 | 21.94279 | 53.14427 | 35795 ft | 438 kts | 267° |
| 2026-04-22 13:38 | 21.93651 | 53.07901 | 35802 ft | 438 kts | 267° |
| 2026-04-22 13:38 | 21.92705 | 52.98117 | 35804 ft | 438 kts | 267° |
| 2026-04-22 13:39 | 21.92072 | 52.91598 | 35804 ft | 438 kts | 267° |
| 2026-04-22 13:39 | 21.91436 | 52.85076 | 35804 ft | 438 kts | 267° |
| 2026-04-22 13:40 | 21.90798 | 52.78562 | 35805 ft | 437 kts | 267° |
| 2026-04-22 13:40 | 21.90282 | 52.72059 | 35803 ft | 434 kts | 272° |
| 2026-04-22 13:41 | 21.90896 | 52.65625 | 35804 ft | 432 kts | 281° |
| 2026-04-22 13:41 | 21.92011 | 52.59270 | 35806 ft | 432 kts | 282° |
| 2026-04-22 13:42 | 21.93208 | 52.52936 | 35806 ft | 432 kts | 282° |
| 2026-04-22 13:42 | 21.94395 | 52.46597 | 35804 ft | 431 kts | 282° |
| 2026-04-22 13:43 | 21.95563 | 52.40261 | 35803 ft | 431 kts | 282° |
| 2026-04-22 13:43 | 21.96719 | 52.33931 | 35806 ft | 431 kts | 282° |
| 2026-04-22 13:44 | 21.97556 | 52.29337 | 35806 ft | 431 kts | 282° |
| 2026-04-22 13:44 | 21.98708 | 52.22997 | 35804 ft | 431 kts | 281° |
| 2026-04-22 13:45 | 21.99862 | 52.16658 | 35806 ft | 431 kts | 281° |
| 2026-04-22 13:45 | 22.01009 | 52.10325 | 35806 ft | 431 kts | 281° |
| 2026-04-22 13:46 | 22.02154 | 52.03985 | 35804 ft | 431 kts | 281° |
| 2026-04-22 13:46 | 22.03288 | 51.97693 | 35805 ft | 431 kts | 281° |
| 2026-04-22 13:47 | 22.04429 | 51.91356 | 35803 ft | 431 kts | 281° |
| 2026-04-22 13:47 | 22.05566 | 51.85014 | 35804 ft | 431 kts | 281° |
| 2026-04-22 13:48 | 22.06702 | 51.78669 | 35805 ft | 431 kts | 281° |
| 2026-04-22 13:48 | 22.07837 | 51.72330 | 35804 ft | 431 kts | 281° |
| 2026-04-22 13:49 | 22.08966 | 51.65986 | 35803 ft | 431 kts | 281° |
| 2026-04-22 13:49 | 22.10095 | 51.59639 | 35812 ft | 431 kts | 281° |
| 2026-04-22 13:50 | 22.11222 | 51.53300 | 35793 ft | 431 kts | 281° |
| 2026-04-22 13:50 | 22.12348 | 51.46953 | 35794 ft | 431 kts | 281° |
| 2026-04-22 13:51 | 22.13415 | 51.40905 | 35795 ft | 431 kts | 281° |
| 2026-04-22 13:51 | 22.14531 | 51.34561 | 35795 ft | 431 kts | 281° |
| 2026-04-22 13:52 | 22.15647 | 51.28210 | 35798 ft | 430 kts | 281° |
| 2026-04-22 13:52 | 22.16760 | 51.21866 | 35813 ft | 430 kts | 281° |
| 2026-04-22 13:53 | 22.17870 | 51.15523 | 35814 ft | 430 kts | 281° |
| 2026-04-22 13:53 | 22.18977 | 51.09185 | 35813 ft | 430 kts | 281° |
| 2026-04-22 13:54 | 22.20083 | 51.02834 | 35813 ft | 430 kts | 281° |
| 2026-04-22 13:54 | 22.21186 | 50.96494 | 35813 ft | 430 kts | 281° |
| 2026-04-22 13:55 | 22.22286 | 50.90149 | 35814 ft | 430 kts | 281° |
| 2026-04-22 13:55 | 22.23374 | 50.83841 | 35814 ft | 430 kts | 281° |
| 2026-04-22 13:56 | 22.24469 | 50.77492 | 35813 ft | 430 kts | 281° |
| 2026-04-22 13:56 | 22.25563 | 50.71145 | 35813 ft | 430 kts | 281° |
| 2026-04-22 13:57 | 22.26653 | 50.64800 | 35814 ft | 430 kts | 281° |
| 2026-04-22 13:57 | 22.27741 | 50.58451 | 35813 ft | 430 kts | 280° |
| 2026-04-22 13:58 | 22.28832 | 50.52060 | 35813 ft | 430 kts | 280° |
| 2026-04-22 13:58 | 22.29907 | 50.45751 | 35813 ft | 430 kts | 280° |
| 2026-04-22 13:59 | 22.30810 | 50.40435 | 35814 ft | 430 kts | 280° |
| 2026-04-22 13:59 | 22.31888 | 50.34081 | 35813 ft | 430 kts | 280° |
| 2026-04-22 14:00 | 22.33139 | 50.26697 | 35813 ft | 430 kts | 280° |
| 2026-04-22 14:00 | 22.34036 | 50.21379 | 35813 ft | 430 kts | 280° |
| 2026-04-22 14:01 | 22.35107 | 50.15026 | 35814 ft | 430 kts | 280° |
| 2026-04-22 14:01 | 22.36175 | 50.08668 | 35813 ft | 430 kts | 280° |
| 2026-04-22 14:02 | 22.37239 | 50.02313 | 35813 ft | 430 kts | 280° |
| 2026-04-22 14:02 | 22.38295 | 49.95997 | 35813 ft | 430 kts | 280° |
| 2026-04-22 14:03 | 22.39356 | 49.89640 | 35833 ft | 430 kts | 280° |
| 2026-04-22 14:03 | 22.40415 | 49.83279 | 35831 ft | 430 kts | 280° |
| 2026-04-22 14:04 | 22.41471 | 49.76919 | 35832 ft | 430 kts | 280° |
| 2026-04-22 14:04 | 22.42521 | 49.70563 | 35843 ft | 429 kts | 280° |
| 2026-04-22 14:05 | 22.43569 | 49.64218 | 35839 ft | 429 kts | 280° |
| 2026-04-22 14:06 | 22.45136 | 49.54697 | 35844 ft | 429 kts | 280° |
| 2026-04-22 14:06 | 22.46178 | 49.48351 | 35841 ft | 428 kts | 280° |
| 2026-04-22 14:07 | 22.47215 | 49.42016 | 35849 ft | 428 kts | 280° |
| 2026-04-22 14:07 | 22.48247 | 49.35685 | 35856 ft | 427 kts | 279° |
| 2026-04-22 14:08 | 22.49276 | 49.29360 | 35833 ft | 427 kts | 279° |
| 2026-04-22 14:08 | 22.50301 | 49.23041 | 35844 ft | 427 kts | 279° |
| 2026-04-22 14:09 | 22.51316 | 49.16770 | 35837 ft | 426 kts | 279° |
| 2026-04-22 14:09 | 22.52336 | 49.10462 | 35837 ft | 426 kts | 279° |
| 2026-04-22 14:10 | 22.53354 | 49.04148 | 35838 ft | 426 kts | 279° |
| 2026-04-22 14:10 | 22.54368 | 48.97844 | 35837 ft | 425 kts | 279° |
| 2026-04-22 14:11 | 22.55379 | 48.91543 | 35839 ft | 425 kts | 279° |
| 2026-04-22 14:11 | 22.56384 | 48.85253 | 35840 ft | 424 kts | 279° |
| 2026-04-22 14:12 | 22.57386 | 48.78964 | 35841 ft | 424 kts | 279° |
| 2026-04-22 14:12 | 22.58385 | 48.72682 | 35844 ft | 423 kts | 279° |
| 2026-04-22 14:13 | 22.59381 | 48.66417 | 35841 ft | 423 kts | 279° |
| 2026-04-22 14:13 | 22.60375 | 48.60140 | 35844 ft | 423 kts | 279° |
| 2026-04-22 14:14 | 22.61365 | 48.53871 | 35839 ft | 423 kts | 279° |
| 2026-04-22 14:14 | 22.62350 | 48.47594 | 35845 ft | 423 kts | 279° |
| 2026-04-22 14:15 | 22.63335 | 48.41324 | 35837 ft | 422 kts | 279° |
| 2026-04-22 14:15 | 22.64314 | 48.35067 | 35838 ft | 422 kts | 279° |
| 2026-04-22 14:16 | 22.65292 | 48.28808 | 35842 ft | 422 kts | 279° |
| 2026-04-22 14:16 | 22.66269 | 48.22547 | 35844 ft | 422 kts | 279° |
| 2026-04-22 14:17 | 22.67243 | 48.16284 | 35844 ft | 421 kts | 279° |
| 2026-04-22 14:17 | 22.68213 | 48.10035 | 35840 ft | 421 kts | 279° |
| 2026-04-22 14:18 | 22.69181 | 48.03786 | 35843 ft | 421 kts | 279° |
| 2026-04-22 14:18 | 22.69890 | 47.97494 | 35846 ft | 421 kts | 275° |
| 2026-04-22 14:19 | 22.70325 | 47.91177 | 35843 ft | 421 kts | 275° |
| 2026-04-22 14:19 | 22.70776 | 47.84902 | 35845 ft | 421 kts | 275° |
| 2026-04-22 14:20 | 22.71540 | 47.75434 | 35838 ft | 421 kts | 275° |
| 2026-04-22 14:20 | 22.72064 | 47.69125 | 35846 ft | 421 kts | 275° |
| 2026-04-22 14:21 | 22.72845 | 47.59659 | 35844 ft | 421 kts | 275° |
| 2026-04-22 14:22 | 22.73618 | 47.50191 | 35854 ft | 421 kts | 275° |
| 2026-04-22 14:23 | 22.74381 | 47.40728 | 35865 ft | 421 kts | 275° |
| 2026-04-22 14:23 | 22.74889 | 47.34414 | 35856 ft | 421 kts | 275° |
| 2026-04-22 14:24 | 22.75394 | 47.28105 | 35868 ft | 420 kts | 275° |
| 2026-04-22 14:24 | 22.75900 | 47.21795 | 35855 ft | 420 kts | 275° |
| 2026-04-22 14:25 | 22.76399 | 47.15486 | 35854 ft | 420 kts | 275° |
| 2026-04-22 14:25 | 22.76901 | 47.09173 | 35851 ft | 420 kts | 275° |
| 2026-04-22 14:26 | 22.77403 | 47.02868 | 35867 ft | 420 kts | 275° |
| 2026-04-22 14:26 | 22.77899 | 46.96561 | 35866 ft | 420 kts | 275° |
| 2026-04-22 14:27 | 22.78394 | 46.90252 | 35856 ft | 420 kts | 275° |
| 2026-04-22 14:27 | 22.78886 | 46.83939 | 35853 ft | 421 kts | 275° |
| 2026-04-22 14:28 | 22.79378 | 46.77619 | 35866 ft | 421 kts | 275° |
| 2026-04-22 14:28 | 22.79864 | 46.71307 | 35848 ft | 420 kts | 275° |
| 2026-04-22 14:29 | 22.80349 | 46.64997 | 35855 ft | 420 kts | 275° |
| 2026-04-22 14:29 | 22.80831 | 46.58686 | 35852 ft | 420 kts | 275° |
| 2026-04-22 14:30 | 22.81311 | 46.52376 | 35847 ft | 420 kts | 275° |
| 2026-04-22 14:30 | 22.81788 | 46.46061 | 35854 ft | 420 kts | 275° |
| 2026-04-22 14:31 | 22.82260 | 46.39779 | 35854 ft | 421 kts | 275° |
| 2026-04-22 14:31 | 22.82736 | 46.33453 | 35846 ft | 421 kts | 275° |
| 2026-04-22 14:32 | 22.83202 | 46.27133 | 35848 ft | 421 kts | 275° |
| 2026-04-22 14:32 | 22.83665 | 46.20811 | 35845 ft | 421 kts | 275° |
| 2026-04-22 14:33 | 22.84126 | 46.14494 | 35848 ft | 420 kts | 275° |
| 2026-04-22 14:33 | 22.84585 | 46.08165 | 35856 ft | 421 kts | 275° |
| 2026-04-22 14:34 | 22.85042 | 46.01849 | 35851 ft | 420 kts | 274° |
| 2026-04-22 14:34 | 22.85499 | 45.95525 | 35867 ft | 421 kts | 274° |
| 2026-04-22 14:35 | 22.85953 | 45.89208 | 35855 ft | 420 kts | 274° |
| 2026-04-22 14:35 | 22.86403 | 45.82886 | 35861 ft | 420 kts | 274° |
| 2026-04-22 14:36 | 22.86849 | 45.76570 | 35862 ft | 421 kts | 274° |
| 2026-04-22 14:36 | 22.87293 | 45.70249 | 35860 ft | 420 kts | 274° |
| 2026-04-22 14:37 | 22.87735 | 45.63934 | 35851 ft | 420 kts | 274° |
| 2026-04-22 14:37 | 22.88176 | 45.57613 | 35851 ft | 420 kts | 274° |
| 2026-04-22 14:38 | 22.88614 | 45.51293 | 35882 ft | 421 kts | 274° |
| 2026-04-22 14:38 | 22.89049 | 45.44968 | 35865 ft | 420 kts | 274° |
| 2026-04-22 14:39 | 22.89481 | 45.38644 | 35882 ft | 420 kts | 274° |
| 2026-04-22 14:39 | 22.89909 | 45.32335 | 35880 ft | 419 kts | 274° |
| 2026-04-22 14:40 | 22.90547 | 45.22869 | 35864 ft | 420 kts | 274° |
| 2026-04-22 14:40 | 22.90967 | 45.16607 | 35884 ft | 419 kts | 274° |
| 2026-04-22 14:41 | 22.91389 | 45.10298 | 35887 ft | 419 kts | 274° |
| 2026-04-22 14:41 | 22.91812 | 45.03988 | 35888 ft | 419 kts | 274° |
| 2026-04-22 14:42 | 22.92224 | 44.97678 | 35890 ft | 420 kts | 274° |
| 2026-04-22 14:42 | 22.92633 | 44.91368 | 35887 ft | 419 kts | 274° |
| 2026-04-22 14:43 | 22.93042 | 44.85061 | 35889 ft | 419 kts | 274° |
| 2026-04-22 14:43 | 22.93451 | 44.78751 | 35889 ft | 419 kts | 274° |
| 2026-04-22 14:44 | 22.93855 | 44.72440 | 35887 ft | 419 kts | 274° |
| 2026-04-22 14:44 | 22.94620 | 44.66182 | 35887 ft | 420 kts | 282° |
| 2026-04-22 14:45 | 22.96312 | 44.60099 | 35887 ft | 421 kts | 285° |
| 2026-04-22 14:45 | 22.98174 | 44.54069 | 35897 ft | 422 kts | 286° |
| 2026-04-22 14:46 | 23.00063 | 44.48035 | 35897 ft | 422 kts | 286° |
| 2026-04-22 14:46 | 23.01931 | 44.42009 | 35897 ft | 421 kts | 286° |
| 2026-04-22 14:47 | 23.03473 | 44.37004 | 35898 ft | 421 kts | 286° |
| 2026-04-22 14:47 | 23.05624 | 44.29998 | 35897 ft | 421 kts | 286° |
| 2026-04-22 14:48 | 23.07472 | 44.23970 | 35897 ft | 421 kts | 286° |
| 2026-04-22 14:48 | 23.09319 | 44.17936 | 35903 ft | 421 kts | 286° |
| 2026-04-22 14:49 | 23.10857 | 44.12896 | 35906 ft | 420 kts | 286° |
| 2026-04-22 14:49 | 23.12696 | 44.06871 | 35897 ft | 420 kts | 286° |
| 2026-04-22 14:50 | 23.14534 | 44.00848 | 35905 ft | 420 kts | 286° |
| 2026-04-22 14:50 | 23.16354 | 43.94871 | 35906 ft | 419 kts | 285° |
| 2026-04-22 14:51 | 23.18181 | 43.88862 | 35906 ft | 419 kts | 285° |
| 2026-04-22 14:51 | 23.20003 | 43.82855 | 35906 ft | 419 kts | 285° |
| 2026-04-22 14:52 | 23.21823 | 43.76846 | 35906 ft | 419 kts | 285° |
| 2026-04-22 14:52 | 23.23642 | 43.70826 | 35905 ft | 418 kts | 285° |
| 2026-04-22 14:53 | 23.25456 | 43.64824 | 35906 ft | 418 kts | 285° |
| 2026-04-22 14:53 | 23.27265 | 43.58824 | 35906 ft | 418 kts | 285° |
| 2026-04-22 14:54 | 23.29076 | 43.52820 | 35906 ft | 418 kts | 285° |
| 2026-04-22 14:54 | 23.30882 | 43.46810 | 35906 ft | 418 kts | 285° |
| 2026-04-22 14:55 | 23.32684 | 43.40804 | 35910 ft | 418 kts | 285° |
| 2026-04-22 14:55 | 23.34484 | 43.34796 | 35916 ft | 418 kts | 285° |
| 2026-04-22 14:56 | 23.36284 | 43.28782 | 35916 ft | 418 kts | 285° |
| 2026-04-22 14:56 | 23.38068 | 43.22814 | 35915 ft | 418 kts | 285° |
| 2026-04-22 14:57 | 23.39865 | 43.16793 | 35916 ft | 417 kts | 285° |
| 2026-04-22 14:57 | 23.41656 | 43.10780 | 35916 ft | 418 kts | 285° |
| 2026-04-22 14:58 | 23.43439 | 43.04768 | 35916 ft | 417 kts | 285° |
| 2026-04-22 14:58 | 23.45220 | 42.98754 | 35915 ft | 417 kts | 285° |
| 2026-04-22 14:59 | 23.46997 | 42.92742 | 35915 ft | 417 kts | 285° |
| 2026-04-22 14:59 | 23.48773 | 42.86732 | 35916 ft | 417 kts | 285° |
| 2026-04-22 15:00 | 23.50547 | 42.80720 | 35915 ft | 416 kts | 285° |
| 2026-04-22 15:00 | 23.52315 | 42.74717 | 35915 ft | 416 kts | 285° |
| 2026-04-22 15:01 | 23.54085 | 42.68720 | 35915 ft | 416 kts | 285° |
| 2026-04-22 15:01 | 23.55848 | 42.62716 | 35916 ft | 415 kts | 285° |
| 2026-04-22 15:02 | 23.57607 | 42.56726 | 35916 ft | 415 kts | 285° |
| 2026-04-22 15:02 | 23.59365 | 42.50742 | 35915 ft | 414 kts | 285° |
| 2026-04-22 15:03 | 23.61117 | 42.44762 | 35916 ft | 414 kts | 285° |
| 2026-04-22 15:03 | 23.62863 | 42.38790 | 35915 ft | 413 kts | 285° |
| 2026-04-22 15:04 | 23.64604 | 42.32823 | 35916 ft | 413 kts | 285° |
| 2026-04-22 15:04 | 23.66343 | 42.26864 | 35915 ft | 412 kts | 285° |
| 2026-04-22 15:05 | 23.68074 | 42.20908 | 35917 ft | 412 kts | 284° |
| 2026-04-22 15:05 | 23.69783 | 42.14996 | 35915 ft | 411 kts | 284° |
| 2026-04-22 15:06 | 23.71501 | 42.09044 | 35914 ft | 411 kts | 284° |
| 2026-04-22 15:06 | 23.73215 | 42.03102 | 35906 ft | 411 kts | 284° |
| 2026-04-22 15:07 | 23.74934 | 41.97147 | 35906 ft | 411 kts | 285° |
| 2026-04-22 15:07 | 23.76656 | 41.91197 | 35906 ft | 411 kts | 284° |
| 2026-04-22 15:08 | 23.78377 | 41.85234 | 35905 ft | 414 kts | 283° |
| 2026-04-22 15:08 | 23.80118 | 41.79181 | 35907 ft | 420 kts | 283° |
| 2026-04-22 15:09 | 23.80994 | 41.76138 | 36030 ft | 419 kts | 283° |
| 2026-04-22 15:09 | 23.81869 | 41.73114 | 36324 ft | 417 kts | 283° |
| 2026-04-22 15:09 | 23.82736 | 41.70103 | 36615 ft | 414 kts | 283° |
| 2026-04-22 15:09 | 23.83593 | 41.67119 | 36877 ft | 411 kts | 283° |
| 2026-04-22 15:10 | 23.84447 | 41.64135 | 37080 ft | 411 kts | 283° |
| 2026-04-22 15:10 | 23.85297 | 41.61162 | 37284 ft | 409 kts | 283° |
| 2026-04-22 15:10 | 23.86142 | 41.58200 | 37459 ft | 409 kts | 283° |
| 2026-04-22 15:10 | 23.86988 | 41.55242 | 37644 ft | 407 kts | 283° |
| 2026-04-22 15:11 | 23.87832 | 41.52291 | 37809 ft | 407 kts | 283° |
| 2026-04-22 15:11 | 23.88670 | 41.49343 | 37960 ft | 405 kts | 283° |
| 2026-04-22 15:11 | 23.89502 | 41.46408 | 38165 ft | 404 kts | 283° |
| 2026-04-22 15:11 | 23.90331 | 41.43479 | 38301 ft | 403 kts | 283° |
| 2026-04-22 15:12 | 23.91156 | 41.40560 | 38460 ft | 402 kts | 283° |
| 2026-04-22 15:12 | 23.91981 | 41.37645 | 38614 ft | 400 kts | 283° |
| 2026-04-22 15:12 | 23.93629 | 41.31834 | 38763 ft | 401 kts | 283° |
| 2026-04-22 15:13 | 23.95275 | 41.26014 | 38900 ft | 402 kts | 283° |
| 2026-04-22 15:13 | 23.96928 | 41.20159 | 38897 ft | 405 kts | 283° |
| 2026-04-22 15:14 | 23.98597 | 41.14253 | 38898 ft | 407 kts | 283° |
| 2026-04-22 15:14 | 24.00264 | 41.08348 | 38898 ft | 406 kts | 283° |
| 2026-04-22 15:15 | 24.01929 | 41.02444 | 38886 ft | 406 kts | 283° |
| 2026-04-22 15:15 | 24.03587 | 40.96542 | 38887 ft | 406 kts | 283° |
| 2026-04-22 15:16 | 24.05247 | 40.90638 | 38881 ft | 407 kts | 283° |
| 2026-04-22 15:16 | 24.06908 | 40.84715 | 38877 ft | 407 kts | 283° |
| 2026-04-22 15:17 | 24.08566 | 40.78789 | 38879 ft | 407 kts | 283° |
| 2026-04-22 15:17 | 24.10223 | 40.72857 | 38871 ft | 408 kts | 283° |
| 2026-04-22 15:18 | 24.11869 | 40.66958 | 38869 ft | 408 kts | 283° |
| 2026-04-22 15:18 | 24.13525 | 40.61013 | 38866 ft | 408 kts | 283° |
| 2026-04-22 15:19 | 24.15182 | 40.55064 | 38869 ft | 409 kts | 282° |
| 2026-04-22 15:19 | 24.17297 | 40.49236 | 38845 ft | 415 kts | 290° |
| 2026-04-22 15:20 | 24.19920 | 40.43594 | 38842 ft | 417 kts | 291° |
| 2026-04-22 15:20 | 24.22630 | 40.37977 | 38831 ft | 417 kts | 292° |
| 2026-04-22 15:21 | 24.25342 | 40.32358 | 38833 ft | 417 kts | 292° |
| 2026-04-22 15:21 | 24.28044 | 40.26734 | 38831 ft | 417 kts | 292° |
| 2026-04-22 15:22 | 24.30899 | 40.21181 | 38832 ft | 419 kts | 294° |
| 2026-04-22 15:22 | 24.33840 | 40.15658 | 38832 ft | 419 kts | 294° |
| 2026-04-22 15:23 | 24.36759 | 40.10127 | 38833 ft | 419 kts | 294° |
| 2026-04-22 15:23 | 24.39654 | 40.04577 | 38833 ft | 419 kts | 293° |
| 2026-04-22 15:24 | 24.42539 | 39.99029 | 38832 ft | 419 kts | 293° |
| 2026-04-22 15:24 | 24.45423 | 39.93477 | 38832 ft | 419 kts | 293° |
| 2026-04-22 15:25 | 24.48309 | 39.87912 | 38832 ft | 419 kts | 293° |
| 2026-04-22 15:25 | 24.51176 | 39.82382 | 38836 ft | 420 kts | 294° |
| 2026-04-22 15:26 | 24.54060 | 39.76819 | 38831 ft | 419 kts | 294° |
| 2026-04-22 15:26 | 24.56939 | 39.71255 | 38832 ft | 419 kts | 294° |
| 2026-04-22 15:27 | 24.59810 | 39.65698 | 38832 ft | 418 kts | 293° |
| 2026-04-22 15:27 | 24.62675 | 39.60137 | 38833 ft | 418 kts | 293° |
| 2026-04-22 15:28 | 24.65541 | 39.54576 | 38831 ft | 418 kts | 293° |
| 2026-04-22 15:28 | 24.68402 | 39.49020 | 38831 ft | 418 kts | 293° |
| 2026-04-22 15:29 | 24.71260 | 39.43463 | 38823 ft | 417 kts | 293° |
| 2026-04-22 15:30 | 24.75060 | 39.36064 | 38823 ft | 417 kts | 293° |
| 2026-04-22 15:30 | 24.78393 | 39.29561 | 38823 ft | 417 kts | 293° |
| 2026-04-22 15:31 | 24.81240 | 39.23999 | 38823 ft | 417 kts | 293° |
| 2026-04-22 15:31 | 24.84080 | 39.18447 | 38822 ft | 416 kts | 293° |
| 2026-04-22 15:32 | 24.86918 | 39.12893 | 38812 ft | 416 kts | 293° |
| 2026-04-22 15:32 | 24.89754 | 39.07335 | 38813 ft | 416 kts | 293° |
| 2026-04-22 15:33 | 24.92586 | 39.01774 | 38814 ft | 416 kts | 293° |
| 2026-04-22 15:33 | 24.95416 | 38.96216 | 38814 ft | 416 kts | 293° |
| 2026-04-22 15:34 | 24.98226 | 38.90687 | 38802 ft | 416 kts | 293° |
| 2026-04-22 15:34 | 25.01053 | 38.85121 | 38804 ft | 416 kts | 293° |
| 2026-04-22 15:35 | 25.03421 | 38.80454 | 38799 ft | 416 kts | 293° |
| 2026-04-22 15:35 | 25.06705 | 38.73966 | 38803 ft | 417 kts | 293° |
| 2026-04-22 15:36 | 25.09533 | 38.68378 | 38803 ft | 417 kts | 293° |
| 2026-04-22 15:36 | 25.12355 | 38.62797 | 38802 ft | 416 kts | 293° |
| 2026-04-22 15:37 | 25.14700 | 38.58155 | 38804 ft | 417 kts | 293° |
| 2026-04-22 15:37 | 25.17522 | 38.52558 | 38802 ft | 416 kts | 293° |
| 2026-04-22 15:38 | 25.20336 | 38.46971 | 38801 ft | 417 kts | 293° |
| 2026-04-22 15:38 | 25.24558 | 38.38574 | 38803 ft | 417 kts | 292° |
| 2026-04-22 15:39 | 25.27376 | 38.32963 | 38809 ft | 418 kts | 293° |
| 2026-04-22 15:39 | 25.30186 | 38.27360 | 38807 ft | 417 kts | 292° |
| 2026-04-22 15:40 | 25.32995 | 38.21747 | 38801 ft | 417 kts | 292° |
| 2026-04-22 15:40 | 25.35803 | 38.16134 | 38795 ft | 417 kts | 292° |
| 2026-04-22 15:41 | 25.38614 | 38.10513 | 38781 ft | 418 kts | 292° |
| 2026-04-22 15:41 | 25.41419 | 38.04896 | 38798 ft | 417 kts | 292° |
| 2026-04-22 15:42 | 25.44200 | 37.99316 | 38785 ft | 417 kts | 292° |
| 2026-04-22 15:42 | 25.46995 | 37.93701 | 38782 ft | 417 kts | 292° |
| 2026-04-22 15:43 | 25.49795 | 37.88072 | 38787 ft | 417 kts | 292° |
| 2026-04-22 15:43 | 25.52589 | 37.82445 | 38789 ft | 417 kts | 292° |
| 2026-04-22 15:44 | 25.55401 | 37.76774 | 38791 ft | 418 kts | 292° |
| 2026-04-22 15:44 | 25.58181 | 37.71162 | 38788 ft | 418 kts | 292° |
| 2026-04-22 15:45 | 25.60978 | 37.65516 | 38786 ft | 418 kts | 292° |
| 2026-04-22 15:45 | 25.63764 | 37.59874 | 38783 ft | 417 kts | 292° |
| 2026-04-22 15:46 | 25.66550 | 37.54228 | 38786 ft | 417 kts | 292° |
| 2026-04-22 15:46 | 25.69332 | 37.48586 | 38784 ft | 417 kts | 292° |
| 2026-04-22 15:47 | 25.72094 | 37.42976 | 38769 ft | 417 kts | 292° |
| 2026-04-22 15:47 | 25.74868 | 37.37328 | 38775 ft | 417 kts | 292° |
| 2026-04-22 15:48 | 25.77646 | 37.31683 | 38778 ft | 417 kts | 292° |
| 2026-04-22 15:48 | 25.80413 | 37.26039 | 38784 ft | 417 kts | 292° |
| 2026-04-22 15:49 | 25.83183 | 37.20381 | 38775 ft | 417 kts | 292° |
| 2026-04-22 15:49 | 25.85946 | 37.14733 | 38771 ft | 416 kts | 292° |
| 2026-04-22 15:50 | 25.88703 | 37.09091 | 38776 ft | 416 kts | 292° |
| 2026-04-22 15:50 | 25.91460 | 37.03442 | 38777 ft | 416 kts | 292° |
| 2026-04-22 15:51 | 25.94214 | 36.97792 | 38779 ft | 416 kts | 292° |
| 2026-04-22 15:51 | 25.96964 | 36.92144 | 38768 ft | 416 kts | 292° |
| 2026-04-22 15:52 | 25.99716 | 36.86482 | 38779 ft | 416 kts | 292° |
| 2026-04-22 15:52 | 26.02447 | 36.80858 | 38777 ft | 417 kts | 292° |
| 2026-04-22 15:53 | 26.05206 | 36.75164 | 38780 ft | 419 kts | 292° |
| 2026-04-22 15:53 | 26.07967 | 36.69463 | 38781 ft | 419 kts | 292° |
| 2026-04-22 15:54 | 26.10727 | 36.63760 | 38775 ft | 419 kts | 292° |
| 2026-04-22 15:54 | 26.13486 | 36.58049 | 38777 ft | 419 kts | 292° |
| 2026-04-22 15:55 | 26.16244 | 36.52339 | 38779 ft | 419 kts | 292° |
| 2026-04-22 15:55 | 26.19623 | 36.46968 | 38780 ft | 430 kts | 303° |
| 2026-04-22 15:56 | 26.23700 | 36.42054 | 38780 ft | 434 kts | 306° |
| 2026-04-22 15:56 | 26.27927 | 36.37247 | 38782 ft | 434 kts | 306° |
| 2026-04-22 15:57 | 26.32155 | 36.32436 | 38781 ft | 434 kts | 306° |
| 2026-04-22 15:57 | 26.36358 | 36.27603 | 38781 ft | 434 kts | 306° |
| 2026-04-22 15:58 | 26.40552 | 36.22758 | 38778 ft | 434 kts | 306° |
| 2026-04-22 15:58 | 26.44740 | 36.17911 | 38781 ft | 434 kts | 306° |
| 2026-04-22 15:59 | 26.48926 | 36.13064 | 38784 ft | 434 kts | 306° |
| 2026-04-22 15:59 | 26.53108 | 36.08212 | 38790 ft | 434 kts | 306° |
| 2026-04-22 16:00 | 26.57293 | 36.03354 | 38785 ft | 434 kts | 306° |
| 2026-04-22 16:00 | 26.61473 | 35.98498 | 38795 ft | 434 kts | 306° |
| 2026-04-22 16:01 | 26.65650 | 35.93639 | 38792 ft | 433 kts | 306° |
| 2026-04-22 16:01 | 26.69794 | 35.88812 | 38799 ft | 433 kts | 306° |
| 2026-04-22 16:02 | 26.73968 | 35.83942 | 38803 ft | 434 kts | 306° |
| 2026-04-22 16:02 | 26.78154 | 35.79057 | 38803 ft | 435 kts | 306° |
| 2026-04-22 16:03 | 26.82350 | 35.74166 | 38813 ft | 436 kts | 306° |
| 2026-04-22 16:03 | 26.86540 | 35.69262 | 38814 ft | 436 kts | 306° |
| 2026-04-22 16:04 | 26.90733 | 35.64349 | 38814 ft | 436 kts | 306° |
| 2026-04-22 16:04 | 26.94929 | 35.59429 | 38822 ft | 437 kts | 306° |
| 2026-04-22 16:05 | 26.99123 | 35.54507 | 38822 ft | 437 kts | 306° |
| 2026-04-22 16:05 | 27.03319 | 35.49577 | 38822 ft | 437 kts | 306° |
| 2026-04-22 16:06 | 27.07517 | 35.44637 | 38832 ft | 437 kts | 306° |
| 2026-04-22 16:06 | 27.11713 | 35.39696 | 38832 ft | 437 kts | 306° |
| 2026-04-22 16:07 | 27.15904 | 35.34755 | 38832 ft | 437 kts | 306° |
| 2026-04-22 16:07 | 27.20101 | 35.29798 | 38851 ft | 438 kts | 306° |
| 2026-04-22 16:08 | 27.24299 | 35.24836 | 38850 ft | 438 kts | 306° |
| 2026-04-22 16:08 | 27.28491 | 35.19878 | 38851 ft | 438 kts | 306° |
| 2026-04-22 16:09 | 27.32684 | 35.14913 | 38860 ft | 438 kts | 306° |
| 2026-04-22 16:09 | 27.36876 | 35.09940 | 38860 ft | 438 kts | 306° |
| 2026-04-22 16:10 | 27.41061 | 35.04972 | 38860 ft | 437 kts | 306° |
| 2026-04-22 16:10 | 27.45244 | 34.99998 | 38859 ft | 437 kts | 306° |
| 2026-04-22 16:11 | 27.49423 | 34.95023 | 38860 ft | 437 kts | 306° |
| 2026-04-22 16:11 | 27.53653 | 34.90091 | 38859 ft | 440 kts | 308° |
| 2026-04-22 16:12 | 27.58115 | 34.85421 | 38860 ft | 441 kts | 310° |
| 2026-04-22 16:12 | 27.62641 | 34.80762 | 38860 ft | 441 kts | 310° |
| 2026-04-22 16:13 | 27.67138 | 34.76061 | 38859 ft | 440 kts | 309° |
| 2026-04-22 16:13 | 27.71602 | 34.71338 | 38860 ft | 440 kts | 309° |
| 2026-04-22 16:14 | 27.76053 | 34.66613 | 38859 ft | 439 kts | 309° |
| 2026-04-22 16:14 | 27.80503 | 34.61885 | 38859 ft | 439 kts | 309° |
| 2026-04-22 16:15 | 27.84953 | 34.57150 | 38860 ft | 440 kts | 309° |
| 2026-04-22 16:15 | 27.89402 | 34.52414 | 38859 ft | 439 kts | 309° |
| 2026-04-22 16:16 | 27.93844 | 34.47682 | 38859 ft | 439 kts | 309° |
| 2026-04-22 16:16 | 27.98280 | 34.42954 | 38859 ft | 438 kts | 309° |
| 2026-04-22 16:17 | 28.02305 | 34.37876 | 38859 ft | 432 kts | 303° |
| 2026-04-22 16:17 | 28.06136 | 34.32633 | 38859 ft | 432 kts | 303° |
| 2026-04-22 16:18 | 28.09931 | 34.27362 | 38858 ft | 431 kts | 303° |
| 2026-04-22 16:18 | 28.13725 | 34.22091 | 38856 ft | 431 kts | 303° |
| 2026-04-22 16:19 | 28.17519 | 34.16820 | 38857 ft | 431 kts | 303° |
| 2026-04-22 16:19 | 28.21309 | 34.11554 | 38858 ft | 431 kts | 303° |
| 2026-04-22 16:20 | 28.25103 | 34.06280 | 38859 ft | 431 kts | 303° |
| 2026-04-22 16:20 | 28.28890 | 34.01007 | 38863 ft | 431 kts | 303° |
| 2026-04-22 16:21 | 28.32672 | 33.95728 | 38857 ft | 431 kts | 303° |
| 2026-04-22 16:21 | 28.36450 | 33.90451 | 38866 ft | 431 kts | 303° |
| 2026-04-22 16:22 | 28.42101 | 33.82549 | 38850 ft | 431 kts | 303° |
| 2026-04-22 16:23 | 28.47777 | 33.74588 | 38858 ft | 432 kts | 303° |
| 2026-04-22 16:23 | 28.51571 | 33.69270 | 38861 ft | 432 kts | 303° |
| 2026-04-22 16:24 | 28.56643 | 33.62171 | 38865 ft | 433 kts | 303° |
| 2026-04-22 16:25 | 28.60431 | 33.56855 | 38855 ft | 432 kts | 303° |
| 2026-04-22 16:25 | 28.66100 | 33.48888 | 38864 ft | 431 kts | 303° |
| 2026-04-22 16:26 | 28.69862 | 33.43572 | 38870 ft | 431 kts | 303° |
| 2026-04-22 16:26 | 28.73596 | 33.38293 | 38866 ft | 431 kts | 303° |
| 2026-04-22 16:27 | 28.77358 | 33.32969 | 38876 ft | 431 kts | 303° |
| 2026-04-22 16:27 | 28.81119 | 33.27642 | 38878 ft | 432 kts | 303° |
| 2026-04-22 16:28 | 28.84876 | 33.22310 | 38886 ft | 431 kts | 303° |
| 2026-04-22 16:28 | 28.88630 | 33.16981 | 38887 ft | 431 kts | 303° |
| 2026-04-22 16:29 | 28.92384 | 33.11644 | 38888 ft | 431 kts | 303° |
| 2026-04-22 16:29 | 28.96136 | 33.06303 | 38895 ft | 431 kts | 303° |
| 2026-04-22 16:30 | 28.99883 | 33.00961 | 38896 ft | 431 kts | 303° |
| 2026-04-22 16:30 | 29.03628 | 32.95615 | 38906 ft | 431 kts | 303° |
| 2026-04-22 16:31 | 29.07367 | 32.90272 | 38907 ft | 431 kts | 303° |
| 2026-04-22 16:31 | 29.11106 | 32.84922 | 38922 ft | 431 kts | 303° |
| 2026-04-22 16:32 | 29.14845 | 32.79562 | 38934 ft | 431 kts | 303° |
| 2026-04-22 16:32 | 29.18580 | 32.74208 | 38936 ft | 431 kts | 303° |
| 2026-04-22 16:33 | 29.22316 | 32.68841 | 38940 ft | 431 kts | 303° |
| 2026-04-22 16:33 | 29.26047 | 32.63473 | 38946 ft | 431 kts | 303° |
| 2026-04-22 16:34 | 29.29772 | 32.58111 | 38946 ft | 430 kts | 303° |
| 2026-04-22 16:34 | 29.33469 | 32.52737 | 38953 ft | 430 kts | 303° |
| 2026-04-22 16:35 | 29.37159 | 32.47339 | 38954 ft | 431 kts | 303° |
| 2026-04-22 16:35 | 29.40855 | 32.41937 | 38954 ft | 430 kts | 303° |
| 2026-04-22 16:36 | 29.44550 | 32.36538 | 38954 ft | 430 kts | 303° |
| 2026-04-22 16:36 | 29.48216 | 32.31175 | 38961 ft | 430 kts | 303° |
| 2026-04-22 16:37 | 29.51912 | 32.25761 | 38962 ft | 431 kts | 303° |
| 2026-04-22 16:37 | 29.55603 | 32.20344 | 38961 ft | 430 kts | 303° |
| 2026-04-22 16:38 | 29.59287 | 32.14934 | 38967 ft | 430 kts | 303° |
| 2026-04-22 16:38 | 29.62974 | 32.09517 | 38971 ft | 430 kts | 303° |
| 2026-04-22 16:39 | 29.66654 | 32.04099 | 38971 ft | 430 kts | 303° |
| 2026-04-22 16:39 | 29.70332 | 31.98673 | 38972 ft | 431 kts | 303° |
| 2026-04-22 16:40 | 29.74015 | 31.93234 | 38972 ft | 430 kts | 303° |
| 2026-04-22 16:41 | 29.79531 | 31.85069 | 38971 ft | 430 kts | 302° |
| 2026-04-22 16:41 | 29.83093 | 31.79544 | 38966 ft | 429 kts | 301° |
| 2026-04-22 16:42 | 29.86629 | 31.74007 | 38959 ft | 431 kts | 303° |
| 2026-04-22 16:42 | 29.90939 | 31.69126 | 38962 ft | 442 kts | 317° |
| 2026-04-22 16:43 | 29.96450 | 31.65766 | 38962 ft | 459 kts | 334° |
| 2026-04-22 16:43 | 30.02767 | 31.64165 | 38962 ft | 469 kts | 343° |
| 2026-04-22 16:44 | 30.09234 | 31.63038 | 38961 ft | 471 kts | 344° |
| 2026-04-22 16:44 | 30.15711 | 31.61943 | 38972 ft | 470 kts | 343° |
| 2026-04-22 16:45 | 30.22181 | 31.60811 | 38971 ft | 470 kts | 343° |
| 2026-04-22 16:45 | 30.28635 | 31.59654 | 38971 ft | 470 kts | 343° |
| 2026-04-22 16:46 | 30.35059 | 31.58493 | 38971 ft | 470 kts | 343° |
| 2026-04-22 16:46 | 30.41564 | 31.57320 | 38970 ft | 470 kts | 343° |
| 2026-04-22 16:47 | 30.48019 | 31.56155 | 38971 ft | 469 kts | 343° |
| 2026-04-22 16:47 | 30.54426 | 31.54994 | 38971 ft | 469 kts | 343° |
| 2026-04-22 16:48 | 30.60877 | 31.53824 | 38971 ft | 469 kts | 343° |
| 2026-04-22 16:48 | 30.67327 | 31.52654 | 38978 ft | 469 kts | 343° |
| 2026-04-22 16:49 | 30.73775 | 31.51482 | 38981 ft | 469 kts | 343° |
| 2026-04-22 16:49 | 30.80213 | 31.50313 | 38984 ft | 468 kts | 344° |
| 2026-04-22 16:50 | 30.86656 | 31.49138 | 38993 ft | 469 kts | 344° |
| 2026-04-22 16:50 | 30.93103 | 31.47959 | 38988 ft | 469 kts | 344° |
| 2026-04-22 16:51 | 30.99550 | 31.46778 | 39000 ft | 469 kts | 344° |
| 2026-04-22 16:51 | 31.05985 | 31.45597 | 39001 ft | 468 kts | 344° |
| 2026-04-22 16:52 | 31.12424 | 31.44414 | 38994 ft | 468 kts | 344° |
| 2026-04-22 16:52 | 31.18866 | 31.43230 | 38999 ft | 468 kts | 344° |
| 2026-04-22 16:53 | 31.25303 | 31.42044 | 38996 ft | 469 kts | 344° |
| 2026-04-22 16:53 | 31.31748 | 31.40859 | 39005 ft | 469 kts | 344° |
| 2026-04-22 16:54 | 31.38186 | 31.39663 | 39004 ft | 469 kts | 344° |
| 2026-04-22 16:54 | 31.44635 | 31.38463 | 39005 ft | 469 kts | 344° |
| 2026-04-22 16:55 | 31.51075 | 31.37264 | 39003 ft | 469 kts | 344° |
| 2026-04-22 16:55 | 31.57529 | 31.36088 | 39011 ft | 471 kts | 346° |
| 2026-04-22 16:56 | 31.64076 | 31.35361 | 39012 ft | 474 kts | 349° |
| 2026-04-22 16:56 | 31.70612 | 31.34808 | 39008 ft | 474 kts | 349° |
| 2026-04-22 16:57 | 31.77176 | 31.34195 | 39015 ft | 473 kts | 349° |
| 2026-04-22 16:57 | 31.83727 | 31.33528 | 39005 ft | 473 kts | 348° |
| 2026-04-22 16:58 | 31.89210 | 31.32951 | 39013 ft | 472 kts | 348° |
| 2026-04-22 16:58 | 31.96813 | 31.32142 | 39005 ft | 472 kts | 348° |
| 2026-04-22 16:59 | 32.03362 | 31.31446 | 39010 ft | 472 kts | 349° |
| 2026-04-22 16:59 | 32.09904 | 31.30748 | 39012 ft | 472 kts | 349° |
| 2026-04-22 17:00 | 32.16449 | 31.30049 | 39006 ft | 472 kts | 349° |
| 2026-04-22 17:00 | 32.26268 | 31.28999 | 39003 ft | 472 kts | 349° |
| 2026-04-22 17:01 | 32.32806 | 31.28291 | 39008 ft | 472 kts | 349° |
| 2026-04-22 17:01 | 32.39346 | 31.27585 | 39019 ft | 472 kts | 349° |
| 2026-04-22 17:02 | 32.45887 | 31.26879 | 39006 ft | 472 kts | 349° |
| 2026-04-22 17:02 | 32.52429 | 31.26173 | 39004 ft | 472 kts | 349° |
| 2026-04-22 17:03 | 32.58781 | 31.24700 | 39005 ft | 460 kts | 335° |
| 2026-04-22 17:03 | 32.64603 | 31.21707 | 39008 ft | 455 kts | 329° |
| 2026-04-22 17:04 | 32.70285 | 31.18400 | 39014 ft | 455 kts | 328° |
| 2026-04-22 17:04 | 32.75944 | 31.15045 | 39005 ft | 455 kts | 328° |
| 2026-04-22 17:05 | 32.81612 | 31.11703 | 38998 ft | 455 kts | 328° |
| 2026-04-22 17:05 | 32.87281 | 31.08375 | 38995 ft | 454 kts | 328° |
| 2026-04-22 17:06 | 32.92952 | 31.05047 | 38999 ft | 454 kts | 328° |
| 2026-04-22 17:06 | 32.98621 | 31.01713 | 39031 ft | 454 kts | 328° |
| 2026-04-22 17:07 | 33.01452 | 31.00047 | 39182 ft | 453 kts | 328° |
| 2026-04-22 17:07 | 33.04274 | 30.98388 | 39335 ft | 452 kts | 328° |
| 2026-04-22 17:07 | 33.09919 | 30.95059 | 39515 ft | 453 kts | 328° |
| 2026-04-22 17:08 | 33.15441 | 30.91505 | 39720 ft | 450 kts | 324° |
| 2026-04-22 17:08 | 33.20821 | 30.87678 | 39845 ft | 451 kts | 324° |
| 2026-04-22 17:09 | 33.25302 | 30.84498 | 39990 ft | 451 kts | 324° |
| 2026-04-22 17:09 | 33.30743 | 30.80700 | 40000 ft | 454 kts | 324° |
| 2026-04-22 17:10 | 33.36224 | 30.76908 | 40001 ft | 455 kts | 325° |
| 2026-04-22 17:10 | 33.41707 | 30.73120 | 40000 ft | 455 kts | 325° |
| 2026-04-22 17:11 | 33.47186 | 30.69321 | 39999 ft | 455 kts | 324° |
| 2026-04-22 17:11 | 33.52658 | 30.65518 | 39999 ft | 455 kts | 324° |
| 2026-04-22 17:12 | 33.58123 | 30.61714 | 40000 ft | 454 kts | 324° |
| 2026-04-22 17:12 | 33.63590 | 30.57903 | 39999 ft | 454 kts | 324° |
| 2026-04-22 17:13 | 33.69055 | 30.54088 | 39994 ft | 454 kts | 324° |
| 2026-04-22 17:13 | 33.74515 | 30.50270 | 39995 ft | 454 kts | 324° |
| 2026-04-22 17:14 | 33.79979 | 30.46446 | 39986 ft | 454 kts | 324° |
| 2026-04-22 17:14 | 33.85445 | 30.42616 | 39991 ft | 454 kts | 324° |
| 2026-04-22 17:15 | 33.90904 | 30.38780 | 39991 ft | 455 kts | 324° |
| 2026-04-22 17:15 | 33.96368 | 30.34938 | 39985 ft | 454 kts | 324° |
| 2026-04-22 17:16 | 34.01823 | 30.31099 | 39991 ft | 454 kts | 324° |
| 2026-04-22 17:16 | 34.07273 | 30.27255 | 39991 ft | 454 kts | 324° |
| 2026-04-22 17:17 | 34.12718 | 30.23408 | 39990 ft | 454 kts | 324° |
| 2026-04-22 17:17 | 34.18167 | 30.19555 | 39987 ft | 454 kts | 324° |
| 2026-04-22 17:18 | 34.23575 | 30.15724 | 39990 ft | 454 kts | 324° |
| 2026-04-22 17:18 | 34.29012 | 30.11866 | 39990 ft | 453 kts | 324° |
| 2026-04-22 17:19 | 34.39888 | 30.04129 | 39991 ft | 453 kts | 324° |
| 2026-04-22 17:20 | 34.49778 | 29.94994 | 39990 ft | 445 kts | 311° |
| 2026-04-22 17:21 | 34.56290 | 29.86991 | 39977 ft | 444 kts | 310° |
| 2026-04-22 17:22 | 34.62761 | 29.78945 | 39981 ft | 443 kts | 310° |
| 2026-04-22 17:23 | 34.69239 | 29.70925 | 39979 ft | 443 kts | 310° |
| 2026-04-22 17:23 | 34.75711 | 29.62899 | 39982 ft | 443 kts | 310° |
| 2026-04-22 17:24 | 34.80020 | 29.57543 | 39981 ft | 443 kts | 310° |
| 2026-04-22 17:24 | 34.84326 | 29.52180 | 39980 ft | 443 kts | 310° |
| 2026-04-22 17:25 | 34.88632 | 29.46808 | 39979 ft | 443 kts | 310° |
| 2026-04-22 17:25 | 34.92939 | 29.41430 | 39982 ft | 443 kts | 310° |
| 2026-04-22 17:26 | 34.97244 | 29.36044 | 39982 ft | 443 kts | 310° |
| 2026-04-22 17:26 | 35.01929 | 29.31094 | 39980 ft | 447 kts | 317° |
| 2026-04-22 17:27 | 35.06857 | 29.26522 | 39981 ft | 448 kts | 319° |
| 2026-04-22 17:27 | 35.11861 | 29.21977 | 39989 ft | 448 kts | 319° |
| 2026-04-22 17:28 | 35.16863 | 29.17429 | 39991 ft | 448 kts | 319° |
| 2026-04-22 17:28 | 35.21855 | 29.12864 | 39989 ft | 448 kts | 319° |
| 2026-04-22 17:29 | 35.26834 | 29.08297 | 39987 ft | 447 kts | 319° |
| 2026-04-22 17:29 | 35.31809 | 29.03725 | 39991 ft | 448 kts | 318° |
| 2026-04-22 17:30 | 35.36792 | 28.99142 | 39991 ft | 448 kts | 318° |
| 2026-04-22 17:30 | 35.41779 | 28.94547 | 39987 ft | 448 kts | 318° |
| 2026-04-22 17:31 | 35.46760 | 28.89948 | 39981 ft | 448 kts | 318° |
| 2026-04-22 17:31 | 35.51737 | 28.85344 | 39965 ft | 448 kts | 318° |
| 2026-04-22 17:32 | 35.56712 | 28.80737 | 39955 ft | 448 kts | 318° |
| 2026-04-22 17:32 | 35.61687 | 28.76122 | 39952 ft | 448 kts | 318° |
| 2026-04-22 17:33 | 35.66669 | 28.71498 | 39961 ft | 449 kts | 318° |
| 2026-04-22 17:33 | 35.71645 | 28.66866 | 39962 ft | 449 kts | 318° |
| 2026-04-22 17:34 | 35.76619 | 28.62230 | 39962 ft | 449 kts | 318° |
| 2026-04-22 17:34 | 35.81596 | 28.57585 | 39962 ft | 449 kts | 318° |
| 2026-04-22 17:35 | 35.86568 | 28.52939 | 39961 ft | 449 kts | 318° |
| 2026-04-22 17:35 | 35.91539 | 28.48282 | 39963 ft | 448 kts | 318° |
| 2026-04-22 17:36 | 35.96505 | 28.43624 | 39963 ft | 448 kts | 318° |
| 2026-04-22 17:36 | 36.01462 | 28.38967 | 39952 ft | 448 kts | 318° |
| 2026-04-22 17:37 | 36.06427 | 28.34294 | 39952 ft | 449 kts | 318° |
| 2026-04-22 17:37 | 36.11395 | 28.29610 | 39953 ft | 449 kts | 318° |
| 2026-04-22 17:38 | 36.16362 | 28.24921 | 39953 ft | 449 kts | 318° |
| 2026-04-22 17:38 | 36.21331 | 28.20223 | 39945 ft | 450 kts | 318° |
| 2026-04-22 17:39 | 36.26267 | 28.15550 | 39942 ft | 449 kts | 318° |
| 2026-04-22 17:40 | 36.33676 | 28.08446 | 39945 ft | 447 kts | 314° |
| 2026-04-22 17:40 | 36.38284 | 28.03289 | 39938 ft | 446 kts | 313° |
| 2026-04-22 17:41 | 36.42833 | 27.98049 | 39941 ft | 445 kts | 313° |
| 2026-04-22 17:41 | 36.47359 | 27.92797 | 39944 ft | 445 kts | 313° |
| 2026-04-22 17:42 | 36.51882 | 27.87551 | 39943 ft | 445 kts | 313° |
| 2026-04-22 17:42 | 36.55675 | 27.83149 | 39944 ft | 445 kts | 313° |
| 2026-04-22 17:43 | 36.60932 | 27.77046 | 39951 ft | 445 kts | 313° |
| 2026-04-22 17:43 | 36.65456 | 27.71780 | 39951 ft | 445 kts | 312° |
| 2026-04-22 17:44 | 36.69971 | 27.66516 | 39953 ft | 444 kts | 313° |
| 2026-04-22 17:44 | 36.74484 | 27.61247 | 39953 ft | 444 kts | 312° |
| 2026-04-22 17:45 | 36.78989 | 27.55978 | 39960 ft | 444 kts | 312° |
| 2026-04-22 17:45 | 36.83494 | 27.50701 | 39960 ft | 444 kts | 312° |
| 2026-04-22 17:46 | 36.87994 | 27.45418 | 39959 ft | 444 kts | 312° |
| 2026-04-22 17:46 | 36.92494 | 27.40127 | 39963 ft | 444 kts | 312° |
| 2026-04-22 17:47 | 36.96988 | 27.34832 | 39963 ft | 444 kts | 312° |
| 2026-04-22 17:47 | 37.01474 | 27.29545 | 39963 ft | 443 kts | 312° |
| 2026-04-22 17:48 | 37.05200 | 27.25145 | 39960 ft | 443 kts | 312° |
| 2026-04-22 17:48 | 37.10431 | 27.18951 | 39960 ft | 443 kts | 312° |
| 2026-04-22 17:49 | 37.14902 | 27.13646 | 39965 ft | 443 kts | 312° |
| 2026-04-22 17:49 | 37.19375 | 27.08332 | 39960 ft | 443 kts | 312° |
| 2026-04-22 17:50 | 37.23841 | 27.03018 | 39960 ft | 443 kts | 312° |
| 2026-04-22 17:50 | 37.28306 | 26.97697 | 39960 ft | 442 kts | 312° |
| 2026-04-22 17:51 | 37.32768 | 26.92373 | 39960 ft | 442 kts | 312° |
| 2026-04-22 17:51 | 37.37229 | 26.87035 | 39960 ft | 443 kts | 312° |
| 2026-04-22 17:52 | 37.41678 | 26.81752 | 39963 ft | 444 kts | 313° |
| 2026-04-22 17:52 | 37.46365 | 26.76679 | 39964 ft | 445 kts | 315° |
| 2026-04-22 17:53 | 37.51107 | 26.71681 | 39959 ft | 445 kts | 315° |
| 2026-04-22 17:53 | 37.55827 | 26.66635 | 39961 ft | 445 kts | 315° |
| 2026-04-22 17:54 | 37.60517 | 26.61559 | 39961 ft | 444 kts | 314° |
| 2026-04-22 17:54 | 37.65200 | 26.56470 | 39963 ft | 444 kts | 314° |
| 2026-04-22 17:55 | 37.69121 | 26.52202 | 39963 ft | 444 kts | 314° |
| 2026-04-22 17:55 | 37.74566 | 26.46282 | 39954 ft | 444 kts | 314° |
| 2026-04-22 17:56 | 37.79251 | 26.41185 | 39952 ft | 444 kts | 314° |
| 2026-04-22 17:56 | 37.83167 | 26.36915 | 39953 ft | 444 kts | 314° |
| 2026-04-22 17:57 | 37.87811 | 26.31847 | 39953 ft | 444 kts | 314° |
| 2026-04-22 17:57 | 37.92477 | 26.26735 | 39942 ft | 444 kts | 314° |
| 2026-04-22 17:58 | 37.97131 | 26.21616 | 39945 ft | 443 kts | 314° |
| 2026-04-22 17:58 | 38.01779 | 26.16492 | 39945 ft | 443 kts | 314° |
| 2026-04-22 17:59 | 38.06428 | 26.11361 | 39944 ft | 443 kts | 314° |
| 2026-04-22 17:59 | 38.11071 | 26.06224 | 39945 ft | 443 kts | 314° |
| 2026-04-22 18:00 | 38.15716 | 26.01086 | 39946 ft | 443 kts | 314° |
| 2026-04-22 18:00 | 38.20358 | 25.95941 | 39942 ft | 443 kts | 314° |
| 2026-04-22 18:01 | 38.25093 | 25.90912 | 39942 ft | 447 kts | 320° |
| 2026-04-22 18:01 | 38.30389 | 25.86704 | 39942 ft | 450 kts | 324° |
| 2026-04-22 18:02 | 38.35807 | 25.82685 | 39943 ft | 451 kts | 324° |
| 2026-04-22 18:02 | 38.41238 | 25.78695 | 39945 ft | 450 kts | 324° |
| 2026-04-22 18:03 | 38.46659 | 25.74691 | 39942 ft | 450 kts | 324° |
| 2026-04-22 18:03 | 38.52067 | 25.70676 | 39942 ft | 450 kts | 324° |
| 2026-04-22 18:04 | 38.57476 | 25.66649 | 39943 ft | 449 kts | 324° |
| 2026-04-22 18:04 | 38.62877 | 25.62619 | 39943 ft | 450 kts | 324° |
| 2026-04-22 18:05 | 38.68276 | 25.58589 | 39951 ft | 449 kts | 324° |
| 2026-04-22 18:05 | 38.73660 | 25.54561 | 39952 ft | 448 kts | 324° |
| 2026-04-22 18:06 | 38.79009 | 25.50552 | 39956 ft | 448 kts | 324° |
| 2026-04-22 18:06 | 38.84386 | 25.46518 | 39956 ft | 448 kts | 324° |
| 2026-04-22 18:07 | 38.89753 | 25.42481 | 39962 ft | 447 kts | 324° |
| 2026-04-22 18:07 | 38.95112 | 25.38440 | 39959 ft | 446 kts | 324° |
| 2026-04-22 18:08 | 39.00463 | 25.34399 | 39962 ft | 446 kts | 324° |
| 2026-04-22 18:08 | 39.05823 | 25.30346 | 39965 ft | 448 kts | 324° |
| 2026-04-22 18:09 | 39.11199 | 25.26275 | 39976 ft | 448 kts | 324° |
| 2026-04-22 18:09 | 39.16573 | 25.22196 | 39992 ft | 448 kts | 324° |
| 2026-04-22 18:10 | 39.21937 | 25.18118 | 39981 ft | 448 kts | 324° |
| 2026-04-22 18:10 | 39.27308 | 25.14030 | 39990 ft | 448 kts | 324° |
| 2026-04-22 18:11 | 39.32679 | 25.09932 | 39990 ft | 448 kts | 324° |
| 2026-04-22 18:11 | 39.38043 | 25.05832 | 39991 ft | 448 kts | 324° |
| 2026-04-22 18:12 | 39.43403 | 25.01728 | 39992 ft | 448 kts | 324° |
| 2026-04-22 18:12 | 39.47860 | 24.98310 | 39986 ft | 448 kts | 324° |
| 2026-04-22 18:13 | 39.54125 | 24.93496 | 39992 ft | 448 kts | 324° |
| 2026-04-22 18:13 | 39.59441 | 24.89402 | 39989 ft | 448 kts | 324° |
| 2026-04-22 18:14 | 39.64794 | 24.85273 | 39993 ft | 447 kts | 324° |
| 2026-04-22 18:14 | 39.70144 | 24.81140 | 39993 ft | 447 kts | 324° |
| 2026-04-22 18:15 | 39.75486 | 24.77005 | 39991 ft | 447 kts | 324° |
| 2026-04-22 18:15 | 39.80829 | 24.72859 | 40000 ft | 447 kts | 324° |
| 2026-04-22 18:16 | 39.86167 | 24.68710 | 39997 ft | 447 kts | 324° |
| 2026-04-22 18:16 | 39.91512 | 24.64552 | 39998 ft | 447 kts | 324° |
| 2026-04-22 18:17 | 39.96854 | 24.60386 | 40006 ft | 447 kts | 324° |
| 2026-04-22 18:17 | 40.02159 | 24.56240 | 39998 ft | 448 kts | 324° |
| 2026-04-22 18:18 | 40.07499 | 24.52050 | 40008 ft | 448 kts | 324° |
| 2026-04-22 18:18 | 40.12845 | 24.47861 | 40008 ft | 449 kts | 324° |
| 2026-04-22 18:19 | 40.18201 | 24.43656 | 40008 ft | 448 kts | 324° |
| 2026-04-22 18:19 | 40.23545 | 24.39452 | 40007 ft | 448 kts | 324° |
| 2026-04-22 18:20 | 40.28885 | 24.35245 | 40010 ft | 448 kts | 324° |
| 2026-04-22 18:20 | 40.34229 | 24.31024 | 40018 ft | 448 kts | 324° |
| 2026-04-22 18:21 | 40.39570 | 24.26798 | 40017 ft | 448 kts | 324° |
| 2026-04-22 18:21 | 40.44911 | 24.22562 | 40017 ft | 448 kts | 324° |
| 2026-04-22 18:22 | 40.50253 | 24.18318 | 40017 ft | 449 kts | 324° |
| 2026-04-22 18:22 | 40.55600 | 24.14059 | 40020 ft | 450 kts | 324° |
| 2026-04-22 18:23 | 40.60949 | 24.09793 | 40029 ft | 449 kts | 324° |
| 2026-04-22 18:23 | 40.66295 | 24.05524 | 40025 ft | 450 kts | 324° |
| 2026-04-22 18:24 | 40.74321 | 23.99091 | 40030 ft | 450 kts | 324° |
| 2026-04-22 18:25 | 40.82342 | 23.92651 | 40028 ft | 450 kts | 324° |
| 2026-04-22 18:25 | 40.87691 | 23.88353 | 40028 ft | 450 kts | 324° |
| 2026-04-22 18:26 | 40.95709 | 23.81883 | 40027 ft | 450 kts | 324° |
| 2026-04-22 18:26 | 41.01055 | 23.77550 | 40027 ft | 451 kts | 324° |
| 2026-04-22 18:27 | 41.06376 | 23.73232 | 40035 ft | 452 kts | 324° |
| 2026-04-22 18:27 | 41.11744 | 23.68875 | 40038 ft | 452 kts | 324° |
| 2026-04-22 18:28 | 41.17111 | 23.64512 | 40043 ft | 452 kts | 324° |
| 2026-04-22 18:28 | 41.22479 | 23.60139 | 40030 ft | 453 kts | 324° |
| 2026-04-22 18:29 | 41.27852 | 23.55747 | 40033 ft | 453 kts | 324° |
| 2026-04-22 18:29 | 41.33231 | 23.51348 | 40039 ft | 454 kts | 324° |
| 2026-04-22 18:30 | 41.41395 | 23.44916 | 40039 ft | 456 kts | 329° |
| 2026-04-22 18:31 | 41.47077 | 23.41120 | 40038 ft | 457 kts | 329° |
| 2026-04-22 18:31 | 41.52798 | 23.37384 | 40046 ft | 458 kts | 330° |
| 2026-04-22 18:32 | 41.58525 | 23.33651 | 40042 ft | 458 kts | 330° |
| 2026-04-22 18:32 | 41.64261 | 23.29908 | 40051 ft | 459 kts | 330° |
| 2026-04-22 18:33 | 41.69988 | 23.26157 | 40042 ft | 458 kts | 330° |
| 2026-04-22 18:33 | 41.75710 | 23.22401 | 40040 ft | 458 kts | 329° |
| 2026-04-22 18:34 | 41.81432 | 23.18627 | 40040 ft | 459 kts | 329° |
| 2026-04-22 18:34 | 41.87153 | 23.14849 | 40054 ft | 458 kts | 329° |
| 2026-04-22 18:35 | 41.92862 | 23.11071 | 40051 ft | 458 kts | 329° |
| 2026-04-22 18:35 | 41.98584 | 23.07281 | 40048 ft | 458 kts | 329° |
| 2026-04-22 18:36 | 42.04295 | 23.03487 | 40048 ft | 459 kts | 330° |
| 2026-04-22 18:36 | 42.10038 | 22.99665 | 40052 ft | 462 kts | 330° |
| 2026-04-22 18:37 | 42.15806 | 22.95821 | 40054 ft | 462 kts | 330° |
| 2026-04-22 18:37 | 42.20595 | 22.92625 | 40048 ft | 462 kts | 330° |
| 2026-04-22 18:38 | 42.27291 | 22.88145 | 40050 ft | 462 kts | 330° |
| 2026-04-22 18:38 | 42.33052 | 22.84286 | 40059 ft | 462 kts | 330° |
| 2026-04-22 18:39 | 42.41685 | 22.78475 | 40050 ft | 462 kts | 330° |
| 2026-04-22 18:39 | 42.47435 | 22.74597 | 40050 ft | 462 kts | 330° |
| 2026-04-22 18:40 | 42.53184 | 22.70712 | 40051 ft | 462 kts | 330° |
| 2026-04-22 18:40 | 42.58932 | 22.66821 | 40057 ft | 462 kts | 330° |
| 2026-04-22 18:41 | 42.64688 | 22.62923 | 40062 ft | 462 kts | 330° |
| 2026-04-22 18:41 | 42.70440 | 22.59009 | 40059 ft | 462 kts | 330° |
| 2026-04-22 18:42 | 42.76187 | 22.55089 | 40055 ft | 462 kts | 330° |
| 2026-04-22 18:42 | 42.81946 | 22.51155 | 40062 ft | 463 kts | 330° |
| 2026-04-22 18:43 | 42.87303 | 22.46399 | 40062 ft | 459 kts | 320° |
| 2026-04-22 18:43 | 42.92348 | 22.41068 | 40058 ft | 459 kts | 319° |
| 2026-04-22 18:44 | 42.97345 | 22.35633 | 40056 ft | 459 kts | 319° |
| 2026-04-22 18:44 | 43.02313 | 22.30215 | 40057 ft | 460 kts | 319° |
| 2026-04-22 18:45 | 43.07325 | 22.24759 | 40076 ft | 461 kts | 319° |
| 2026-04-22 18:45 | 43.12344 | 22.19294 | 40067 ft | 461 kts | 319° |
| 2026-04-22 18:46 | 43.16551 | 22.14704 | 40076 ft | 462 kts | 319° |
| 2026-04-22 18:46 | 43.21574 | 22.09213 | 40065 ft | 462 kts | 319° |
| 2026-04-22 18:47 | 43.26572 | 22.03737 | 40076 ft | 463 kts | 319° |
| 2026-04-22 18:47 | 43.31319 | 21.98524 | 40076 ft | 463 kts | 319° |
| 2026-04-22 18:48 | 43.36356 | 21.92982 | 40077 ft | 463 kts | 319° |
| 2026-04-22 18:48 | 43.41347 | 21.87477 | 40076 ft | 463 kts | 319° |
| 2026-04-22 18:49 | 43.46376 | 21.81919 | 40076 ft | 464 kts | 319° |
| 2026-04-22 18:49 | 43.51412 | 21.76340 | 40080 ft | 465 kts | 319° |
| 2026-04-22 18:50 | 43.56447 | 21.70751 | 40082 ft | 465 kts | 319° |
| 2026-04-22 18:50 | 43.61480 | 21.65152 | 40082 ft | 465 kts | 319° |
| 2026-04-22 18:51 | 43.66520 | 21.59532 | 40082 ft | 465 kts | 319° |
| 2026-04-22 18:51 | 43.71556 | 21.53905 | 40091 ft | 465 kts | 319° |
| 2026-04-22 18:52 | 43.76586 | 21.48271 | 40091 ft | 465 kts | 319° |
| 2026-04-22 18:52 | 43.81612 | 21.42630 | 40099 ft | 465 kts | 319° |
| 2026-04-22 18:53 | 43.86632 | 21.36982 | 40101 ft | 465 kts | 319° |
| 2026-04-22 18:53 | 43.91646 | 21.31329 | 40109 ft | 464 kts | 319° |
| 2026-04-22 18:54 | 43.96652 | 21.25670 | 40119 ft | 464 kts | 319° |
| 2026-04-22 18:54 | 44.01656 | 21.20003 | 40118 ft | 464 kts | 319° |
| 2026-04-22 18:55 | 44.06665 | 21.14315 | 40120 ft | 466 kts | 319° |
| 2026-04-22 18:55 | 44.11692 | 21.08596 | 40121 ft | 467 kts | 319° |
| 2026-04-22 18:56 | 44.16723 | 21.02860 | 40130 ft | 468 kts | 319° |
| 2026-04-22 18:56 | 44.21755 | 20.97109 | 40127 ft | 467 kts | 319° |
| 2026-04-22 18:57 | 44.26775 | 20.91359 | 40125 ft | 467 kts | 319° |
| 2026-04-22 18:57 | 44.31794 | 20.85596 | 40129 ft | 467 kts | 319° |
| 2026-04-22 18:58 | 44.36812 | 20.79821 | 40129 ft | 467 kts | 319° |
| 2026-04-22 18:58 | 44.41822 | 20.74044 | 40126 ft | 467 kts | 319° |
| 2026-04-22 18:59 | 44.46831 | 20.68252 | 40137 ft | 467 kts | 319° |
| 2026-04-22 18:59 | 44.51833 | 20.62457 | 40137 ft | 467 kts | 319° |
| 2026-04-22 19:00 | 44.56833 | 20.56650 | 40139 ft | 467 kts | 319° |
| 2026-04-22 19:00 | 44.61831 | 20.50831 | 40146 ft | 467 kts | 319° |
| 2026-04-22 19:01 | 44.66786 | 20.45049 | 40154 ft | 467 kts | 319° |
| 2026-04-22 19:01 | 44.71783 | 20.39205 | 40156 ft | 467 kts | 319° |
| 2026-04-22 19:02 | 44.76777 | 20.33352 | 40156 ft | 467 kts | 319° |
| 2026-04-22 19:02 | 44.81806 | 20.27443 | 40156 ft | 468 kts | 319° |
| 2026-04-22 19:03 | 44.86768 | 20.21599 | 40155 ft | 468 kts | 319° |
| 2026-04-22 19:03 | 44.91795 | 20.15664 | 40156 ft | 469 kts | 319° |
| 2026-04-22 19:04 | 44.96765 | 20.09784 | 40156 ft | 469 kts | 319° |
| 2026-04-22 19:04 | 45.01761 | 20.03858 | 40156 ft | 470 kts | 319° |
| 2026-04-22 19:05 | 45.06766 | 19.97909 | 40156 ft | 470 kts | 319° |
| 2026-04-22 19:05 | 45.11766 | 19.91951 | 40155 ft | 469 kts | 319° |
| 2026-04-22 19:06 | 45.16751 | 19.85996 | 40157 ft | 470 kts | 319° |
| 2026-04-22 19:07 | 45.24250 | 19.77012 | 40155 ft | 470 kts | 319° |
| 2026-04-22 19:07 | 45.29245 | 19.71010 | 40156 ft | 471 kts | 319° |
| 2026-04-22 19:08 | 45.34244 | 19.64989 | 40163 ft | 471 kts | 320° |
| 2026-04-22 19:08 | 45.39249 | 19.58947 | 40165 ft | 472 kts | 320° |
| 2026-04-22 19:09 | 45.44241 | 19.52905 | 40165 ft | 472 kts | 319° |
| 2026-04-22 19:09 | 45.48397 | 19.47864 | 40165 ft | 472 kts | 319° |
| 2026-04-22 19:10 | 45.54233 | 19.40768 | 40156 ft | 472 kts | 319° |
| 2026-04-22 19:10 | 45.59226 | 19.34681 | 40156 ft | 472 kts | 319° |
| 2026-04-22 19:11 | 45.64209 | 19.28592 | 40156 ft | 472 kts | 319° |
| 2026-04-22 19:11 | 45.69193 | 19.22487 | 40156 ft | 472 kts | 319° |
| 2026-04-22 19:12 | 45.74173 | 19.16371 | 40156 ft | 472 kts | 319° |
| 2026-04-22 19:12 | 45.79148 | 19.10246 | 40165 ft | 472 kts | 319° |
| 2026-04-22 19:13 | 45.84089 | 19.04148 | 40165 ft | 472 kts | 319° |
| 2026-04-22 19:13 | 45.89089 | 18.97964 | 40165 ft | 472 kts | 319° |
| 2026-04-22 19:14 | 45.94025 | 18.91843 | 40165 ft | 472 kts | 319° |
| 2026-04-22 19:14 | 45.98943 | 18.85604 | 40165 ft | 472 kts | 319° |
| 2026-04-22 19:15 | 46.03040 | 18.80327 | 40155 ft | 472 kts | 319° |
| 2026-04-22 19:15 | 46.08747 | 18.72975 | 40174 ft | 475 kts | 319° |
| 2026-04-22 19:16 | 46.13675 | 18.66633 | 40174 ft | 475 kts | 319° |
| 2026-04-22 19:16 | 46.18601 | 18.60283 | 40176 ft | 475 kts | 319° |
| 2026-04-22 19:17 | 46.23518 | 18.53928 | 40173 ft | 474 kts | 319° |
| 2026-04-22 19:17 | 46.28427 | 18.47567 | 40174 ft | 474 kts | 319° |
| 2026-04-22 19:18 | 46.33333 | 18.41194 | 40174 ft | 474 kts | 319° |
| 2026-04-22 19:18 | 46.38262 | 18.34774 | 40174 ft | 474 kts | 319° |
| 2026-04-22 19:19 | 46.43135 | 18.28411 | 40177 ft | 474 kts | 319° |
| 2026-04-22 19:19 | 46.48029 | 18.22006 | 40174 ft | 474 kts | 319° |
| 2026-04-22 19:20 | 46.52922 | 18.15584 | 40181 ft | 474 kts | 319° |
| 2026-04-22 19:20 | 46.57812 | 18.09151 | 40180 ft | 474 kts | 319° |
| 2026-04-22 19:21 | 46.62697 | 18.02708 | 40181 ft | 474 kts | 319° |
| 2026-04-22 19:21 | 46.67547 | 17.96295 | 40179 ft | 474 kts | 319° |
| 2026-04-22 19:22 | 46.72430 | 17.89822 | 40185 ft | 475 kts | 319° |
| 2026-04-22 19:22 | 46.77311 | 17.83334 | 40181 ft | 475 kts | 319° |
| 2026-04-22 19:23 | 46.82195 | 17.76826 | 40188 ft | 475 kts | 319° |
| 2026-04-22 19:23 | 46.87076 | 17.70305 | 40189 ft | 476 kts | 319° |
| 2026-04-22 19:24 | 46.91953 | 17.63773 | 40180 ft | 476 kts | 319° |
| 2026-04-22 19:24 | 46.96834 | 17.57217 | 40186 ft | 476 kts | 319° |
| 2026-04-22 19:25 | 47.01706 | 17.50659 | 40180 ft | 476 kts | 319° |
| 2026-04-22 19:25 | 47.06581 | 17.44079 | 40180 ft | 476 kts | 319° |
| 2026-04-22 19:26 | 47.11455 | 17.37482 | 40181 ft | 477 kts | 319° |
| 2026-04-22 19:26 | 47.16325 | 17.30874 | 40188 ft | 477 kts | 319° |
| 2026-04-22 19:27 | 47.21196 | 17.24248 | 40185 ft | 477 kts | 319° |
| 2026-04-22 19:27 | 47.26068 | 17.17602 | 40182 ft | 477 kts | 319° |
| 2026-04-22 19:28 | 47.30933 | 17.10948 | 40181 ft | 477 kts | 319° |
| 2026-04-22 19:28 | 47.35794 | 17.04283 | 40180 ft | 477 kts | 319° |
| 2026-04-22 19:29 | 47.40618 | 16.97651 | 40195 ft | 477 kts | 319° |
| 2026-04-22 19:29 | 47.45502 | 16.90918 | 40196 ft | 477 kts | 319° |
| 2026-04-22 19:30 | 47.48717 | 16.86477 | 40195 ft | 478 kts | 319° |
| 2026-04-22 19:30 | 47.55172 | 16.77537 | 40196 ft | 478 kts | 319° |
| 2026-04-22 19:31 | 47.60114 | 16.70954 | 40198 ft | 477 kts | 323° |
| 2026-04-22 19:31 | 47.65314 | 16.64881 | 40203 ft | 476 kts | 324° |
| 2026-04-22 19:32 | 47.70540 | 16.58835 | 40204 ft | 476 kts | 324° |
| 2026-04-22 19:32 | 47.74883 | 16.53702 | 40208 ft | 477 kts | 323° |
| 2026-04-22 19:33 | 47.80013 | 16.47552 | 40208 ft | 477 kts | 323° |
| 2026-04-22 19:33 | 47.84889 | 16.41672 | 40211 ft | 477 kts | 323° |
| 2026-04-22 19:34 | 47.90046 | 16.35440 | 40210 ft | 477 kts | 323° |
| 2026-04-22 19:34 | 47.95195 | 16.29206 | 40210 ft | 477 kts | 323° |
| 2026-04-22 19:35 | 48.00344 | 16.22957 | 40210 ft | 477 kts | 323° |
| 2026-04-22 19:35 | 48.05498 | 16.16686 | 40213 ft | 478 kts | 323° |
| 2026-04-22 19:36 | 48.10651 | 16.10400 | 40210 ft | 478 kts | 323° |
| 2026-04-22 19:36 | 48.15792 | 16.04110 | 40218 ft | 478 kts | 323° |
| 2026-04-22 19:37 | 48.20937 | 15.97799 | 40220 ft | 478 kts | 323° |
| 2026-04-22 19:37 | 48.26050 | 15.91510 | 40212 ft | 478 kts | 323° |
| 2026-04-22 19:38 | 48.31187 | 15.85176 | 40210 ft | 478 kts | 323° |
| 2026-04-22 19:38 | 48.36322 | 15.78826 | 40210 ft | 478 kts | 323° |
| 2026-04-22 19:39 | 48.41455 | 15.72461 | 40220 ft | 478 kts | 323° |
| 2026-04-22 19:39 | 48.46582 | 15.66087 | 40220 ft | 478 kts | 323° |
| 2026-04-22 19:40 | 48.51706 | 15.59698 | 40228 ft | 478 kts | 323° |
| 2026-04-22 19:40 | 48.56831 | 15.53293 | 40230 ft | 479 kts | 323° |
| 2026-04-22 19:41 | 48.61959 | 15.46865 | 40229 ft | 479 kts | 323° |
| 2026-04-22 19:41 | 48.67085 | 15.40423 | 40229 ft | 479 kts | 323° |
| 2026-04-22 19:42 | 48.72208 | 15.33967 | 40229 ft | 479 kts | 323° |
| 2026-04-22 19:42 | 48.77331 | 15.27493 | 40228 ft | 480 kts | 323° |
| 2026-04-22 19:43 | 48.85012 | 15.17753 | 40228 ft | 480 kts | 323° |
| 2026-04-22 19:43 | 48.90126 | 15.11246 | 40230 ft | 480 kts | 323° |
| 2026-04-22 19:44 | 48.95181 | 15.04604 | 40228 ft | 481 kts | 321° |
| 2026-04-22 19:44 | 49.00178 | 14.97833 | 40232 ft | 481 kts | 321° |
| 2026-04-22 19:45 | 49.05174 | 14.91067 | 40231 ft | 481 kts | 321° |
| 2026-04-22 19:45 | 49.10190 | 14.84295 | 40231 ft | 481 kts | 321° |
| 2026-04-22 19:46 | 49.15194 | 14.77535 | 40241 ft | 481 kts | 321° |
| 2026-04-22 19:46 | 49.20217 | 14.70735 | 40251 ft | 482 kts | 321° |
| 2026-04-22 19:47 | 49.25221 | 14.63935 | 40253 ft | 481 kts | 321° |
| 2026-04-22 19:47 | 49.30191 | 14.57153 | 40252 ft | 481 kts | 321° |
| 2026-04-22 19:48 | 49.35188 | 14.50320 | 40254 ft | 481 kts | 321° |
| 2026-04-22 19:48 | 49.40185 | 14.43476 | 40261 ft | 481 kts | 321° |
| 2026-04-22 19:49 | 49.45181 | 14.36610 | 40255 ft | 482 kts | 321° |
| 2026-04-22 19:49 | 49.50174 | 14.29727 | 40256 ft | 482 kts | 321° |
| 2026-04-22 19:50 | 49.55161 | 14.22839 | 40261 ft | 482 kts | 321° |
| 2026-04-22 19:50 | 49.60150 | 14.15915 | 40265 ft | 482 kts | 321° |
| 2026-04-22 19:51 | 49.65135 | 14.08980 | 40276 ft | 483 kts | 321° |
| 2026-04-22 19:51 | 49.70121 | 14.02028 | 40275 ft | 483 kts | 321° |
| 2026-04-22 19:52 | 49.75107 | 13.95061 | 40275 ft | 483 kts | 321° |
| 2026-04-22 19:52 | 49.80091 | 13.88076 | 40275 ft | 483 kts | 321° |
| 2026-04-22 19:53 | 49.85066 | 13.81076 | 40276 ft | 483 kts | 321° |
| 2026-04-22 19:53 | 49.90031 | 13.74062 | 40286 ft | 483 kts | 321° |
| 2026-04-22 19:54 | 49.94993 | 13.67036 | 40284 ft | 483 kts | 321° |
| 2026-04-22 19:54 | 49.99956 | 13.59995 | 40284 ft | 483 kts | 321° |
| 2026-04-22 19:55 | 50.04919 | 13.52940 | 40284 ft | 483 kts | 321° |
| 2026-04-22 19:55 | 50.09878 | 13.45863 | 40286 ft | 484 kts | 321° |
| 2026-04-22 19:56 | 50.14830 | 13.38770 | 40284 ft | 483 kts | 320° |
| 2026-04-22 19:56 | 50.19779 | 13.31665 | 40284 ft | 484 kts | 320° |
| 2026-04-22 19:57 | 50.24721 | 13.24545 | 40292 ft | 483 kts | 320° |
| 2026-04-22 19:57 | 50.29655 | 13.17417 | 40292 ft | 483 kts | 320° |
| 2026-04-22 19:58 | 50.34557 | 13.10323 | 40295 ft | 484 kts | 320° |
| 2026-04-22 19:58 | 50.39492 | 13.03157 | 40295 ft | 484 kts | 320° |
| 2026-04-22 20:00 | 50.57121 | 12.78847 | 40301 ft | 481 kts | 324° |
| 2026-04-22 20:01 | 50.62341 | 12.72263 | 40305 ft | 481 kts | 324° |
| 2026-04-22 20:01 | 50.67533 | 12.65583 | 40317 ft | 481 kts | 323° |
| 2026-04-22 20:02 | 50.72701 | 12.58866 | 40311 ft | 481 kts | 323° |
| 2026-04-22 20:02 | 50.77863 | 12.52127 | 40315 ft | 482 kts | 323° |
| 2026-04-22 20:03 | 50.83024 | 12.45369 | 40318 ft | 482 kts | 323° |
| 2026-04-22 20:03 | 50.88179 | 12.38607 | 40329 ft | 481 kts | 323° |
| 2026-04-22 20:04 | 50.93333 | 12.31828 | 40318 ft | 481 kts | 323° |
| 2026-04-22 20:04 | 50.98489 | 12.25029 | 40327 ft | 482 kts | 323° |
| 2026-04-22 20:05 | 51.03650 | 12.18210 | 40330 ft | 483 kts | 323° |
| 2026-04-22 20:05 | 51.08805 | 12.11366 | 40321 ft | 483 kts | 323° |
| 2026-04-22 20:06 | 51.13954 | 12.04505 | 40319 ft | 483 kts | 323° |
| 2026-04-22 20:06 | 51.19109 | 11.97619 | 40324 ft | 484 kts | 323° |
| 2026-04-22 20:07 | 51.24262 | 11.90720 | 40320 ft | 483 kts | 323° |
| 2026-04-22 20:07 | 51.29407 | 11.83809 | 40319 ft | 484 kts | 323° |
| 2026-04-22 20:08 | 51.34556 | 11.76867 | 40319 ft | 484 kts | 323° |
| 2026-04-22 20:08 | 51.39703 | 11.69914 | 40322 ft | 485 kts | 323° |
| 2026-04-22 20:09 | 51.44850 | 11.62936 | 40322 ft | 485 kts | 323° |
| 2026-04-22 20:09 | 51.49996 | 11.55932 | 40320 ft | 485 kts | 323° |
| 2026-04-22 20:10 | 51.55208 | 11.49068 | 40324 ft | 482 kts | 328° |
| 2026-04-22 20:10 | 51.61117 | 11.44252 | 40322 ft | 474 kts | 345° |
| 2026-04-22 20:11 | 51.67429 | 11.41193 | 40321 ft | 474 kts | 347° |
| 2026-04-22 20:11 | 51.73766 | 11.38256 | 40318 ft | 473 kts | 347° |
| 2026-04-22 20:12 | 51.80094 | 11.35316 | 40326 ft | 473 kts | 347° |
| 2026-04-22 20:12 | 51.85360 | 11.32862 | 40322 ft | 474 kts | 347° |
| 2026-04-22 20:13 | 51.92768 | 11.29407 | 40328 ft | 474 kts | 347° |
| 2026-04-22 20:13 | 51.99056 | 11.26460 | 40318 ft | 474 kts | 347° |
| 2026-04-22 20:14 | 52.05395 | 11.23486 | 39945 ft | 473 kts | 347° |
| 2026-04-22 20:14 | 52.08551 | 11.21999 | 39466 ft | 472 kts | 347° |
| 2026-04-22 20:14 | 52.11744 | 11.20493 | 38958 ft | 472 kts | 347° |
| 2026-04-22 20:14 | 52.14891 | 11.19008 | 38464 ft | 471 kts | 348° |
| 2026-04-22 20:15 | 52.18036 | 11.17525 | 37963 ft | 471 kts | 348° |
| 2026-04-22 20:15 | 52.21188 | 11.16034 | 37461 ft | 472 kts | 348° |
| 2026-04-22 20:15 | 52.24286 | 11.14566 | 36959 ft | 470 kts | 348° |
| 2026-04-22 20:15 | 52.27440 | 11.13068 | 36408 ft | 474 kts | 349° |
| 2026-04-22 20:16 | 52.30609 | 11.11561 | 35794 ft | 475 kts | 349° |
| 2026-04-22 20:16 | 52.33797 | 11.10043 | 35136 ft | 479 kts | 349° |
| 2026-04-22 20:16 | 52.37012 | 11.08511 | 34397 ft | 483 kts | 350° |
| 2026-04-22 20:16 | 52.40260 | 11.06961 | 33645 ft | 488 kts | 350° |
| 2026-04-22 20:17 | 52.43541 | 11.05394 | 32920 ft | 496 kts | 350° |
| 2026-04-22 20:17 | 52.46871 | 11.03801 | 32166 ft | 500 kts | 349° |
| 2026-04-22 20:17 | 52.49125 | 11.02718 | 31644 ft | 500 kts | 349° |
| 2026-04-22 20:17 | 52.52467 | 11.01106 | 30910 ft | 500 kts | 349° |
| 2026-04-22 20:18 | 52.55800 | 10.99500 | 30156 ft | 500 kts | 349° |
| 2026-04-22 20:18 | 52.59147 | 10.97889 | 29410 ft | 500 kts | 348° |
| 2026-04-22 20:18 | 52.62434 | 10.96299 | 28667 ft | 497 kts | 348° |
| 2026-04-22 20:18 | 52.65745 | 10.94698 | 27927 ft | 494 kts | 348° |
| 2026-04-22 20:19 | 52.69074 | 10.93084 | 27155 ft | 488 kts | 347° |
| 2026-04-22 20:19 | 52.72236 | 10.91545 | 26403 ft | 475 kts | 347° |
| 2026-04-22 20:19 | 52.75393 | 10.90012 | 25663 ft | 471 kts | 347° |
| 2026-04-22 20:19 | 52.78522 | 10.88491 | 24912 ft | 466 kts | 346° |
| 2026-04-22 20:20 | 52.81612 | 10.86984 | 24164 ft | 460 kts | 346° |
| 2026-04-22 20:20 | 52.84656 | 10.85500 | 23416 ft | 454 kts | 346° |
| 2026-04-22 20:20 | 52.87667 | 10.84030 | 22679 ft | 447 kts | 346° |
| 2026-04-22 20:20 | 52.90630 | 10.82580 | 21918 ft | 441 kts | 346° |
| 2026-04-22 20:21 | 52.93556 | 10.81146 | 21151 ft | 435 kts | 346° |
| 2026-04-22 20:21 | 52.96451 | 10.79726 | 20410 ft | 429 kts | 346° |
| 2026-04-22 20:21 | 52.99283 | 10.78334 | 19656 ft | 422 kts | 345° |
| 2026-04-22 20:21 | 53.02082 | 10.76956 | 18910 ft | 417 kts | 345° |
| 2026-04-22 20:22 | 53.04848 | 10.75595 | 18161 ft | 412 kts | 345° |
| 2026-04-22 20:22 | 53.07576 | 10.74249 | 17421 ft | 406 kts | 345° |
| 2026-04-22 20:22 | 53.10266 | 10.72920 | 16664 ft | 401 kts | 345° |
| 2026-04-22 20:22 | 53.12920 | 10.71608 | 15906 ft | 396 kts | 345° |
| 2026-04-22 20:23 | 53.15543 | 10.70310 | 15160 ft | 391 kts | 345° |
| 2026-04-22 20:23 | 53.18130 | 10.69026 | 14442 ft | 386 kts | 345° |
| 2026-04-22 20:23 | 53.20712 | 10.67741 | 13924 ft | 385 kts | 345° |
| 2026-04-22 20:23 | 53.23257 | 10.66476 | 13422 ft | 379 kts | 345° |
| 2026-04-22 20:24 | 53.25772 | 10.65227 | 12884 ft | 375 kts | 345° |
| 2026-04-22 20:24 | 53.28255 | 10.63990 | 12334 ft | 371 kts | 345° |
| 2026-04-22 20:24 | 53.30711 | 10.62764 | 11789 ft | 367 kts | 345° |
| 2026-04-22 20:24 | 53.33130 | 10.61556 | 11358 ft | 357 kts | 345° |
| 2026-04-22 20:25 | 53.35471 | 10.60384 | 10976 ft | 346 kts | 344° |
| 2026-04-22 20:25 | 53.37740 | 10.59246 | 10600 ft | 332 kts | 344° |
| 2026-04-22 20:25 | 53.39870 | 10.58177 | 10216 ft | 308 kts | 344° |
| 2026-04-22 20:25 | 53.41859 | 10.57177 | 9833 ft | 289 kts | 344° |
| 2026-04-22 20:26 | 53.43728 | 10.56236 | 9448 ft | 274 kts | 344° |
| 2026-04-22 20:26 | 53.45550 | 10.55320 | 9079 ft | 273 kts | 343° |
| 2026-04-22 20:26 | 53.47360 | 10.54414 | 8708 ft | 270 kts | 343° |
| 2026-04-22 20:26 | 53.49149 | 10.53513 | 8330 ft | 267 kts | 343° |
| 2026-04-22 20:27 | 53.50925 | 10.52617 | 7952 ft | 266 kts | 343° |
| 2026-04-22 20:27 | 53.52691 | 10.51726 | 7577 ft | 264 kts | 343° |
| 2026-04-22 20:27 | 53.54445 | 10.50841 | 7200 ft | 263 kts | 343° |
| 2026-04-22 20:27 | 53.56192 | 10.49959 | 6826 ft | 262 kts | 343° |
| 2026-04-22 20:28 | 53.57927 | 10.49080 | 6524 ft | 259 kts | 343° |
| 2026-04-22 20:28 | 53.59653 | 10.48211 | 6271 ft | 258 kts | 343° |
| 2026-04-22 20:28 | 53.61370 | 10.47341 | 6017 ft | 257 kts | 343° |
| 2026-04-22 20:28 | 53.63082 | 10.46473 | 5754 ft | 257 kts | 343° |
| 2026-04-22 20:29 | 53.64760 | 10.45507 | 5460 ft | 251 kts | 334° |
| 2026-04-22 20:29 | 53.66220 | 10.44006 | 5225 ft | 243 kts | 325° |
| 2026-04-22 20:29 | 53.67583 | 10.42350 | 4881 ft | 240 kts | 324° |
| 2026-04-22 20:29 | 53.68925 | 10.40695 | 4529 ft | 238 kts | 324° |
| 2026-04-22 20:30 | 53.70256 | 10.39060 | 4182 ft | 236 kts | 324° |
| 2026-04-22 20:30 | 53.71580 | 10.37445 | 3830 ft | 234 kts | 324° |
| 2026-04-22 20:30 | 53.72881 | 10.35873 | 3483 ft | 232 kts | 324° |
| 2026-04-22 20:30 | 53.74184 | 10.34306 | 3252 ft | 224 kts | 324° |
| 2026-04-22 20:31 | 53.75239 | 10.32516 | 3059 ft | 211 kts | 301° |
| 2026-04-22 20:31 | 53.75541 | 10.30160 | 2982 ft | 208 kts | 271° |
| 2026-04-22 20:31 | 53.75385 | 10.27738 | 2969 ft | 202 kts | 265° |
| 2026-04-22 20:31 | 53.75169 | 10.25514 | 2972 ft | 182 kts | 264° |
| 2026-04-22 20:32 | 53.74921 | 10.23501 | 2970 ft | 171 kts | 256° |
| 2026-04-22 20:32 | 53.74298 | 10.21753 | 2985 ft | 177 kts | 236° |
| 2026-04-22 20:32 | 53.73509 | 10.20146 | 2987 ft | 178 kts | 236° |
| 2026-04-22 20:32 | 53.72725 | 10.18514 | 2848 ft | 179 kts | 236° |
| 2026-04-22 20:33 | 53.71936 | 10.16899 | 2610 ft | 178 kts | 235° |
| 2026-04-22 20:33 | 53.71150 | 10.15297 | 2366 ft | 177 kts | 234° |
| 2026-04-22 20:33 | 53.70368 | 10.13703 | 2127 ft | 176 kts | 234° |
| 2026-04-22 20:33 | 53.69588 | 10.12118 | 1883 ft | 175 kts | 233° |
| 2026-04-22 20:34 | 53.68825 | 10.10569 | 1667 ft | 165 kts | 233° |
| 2026-04-22 20:34 | 53.68118 | 10.09130 | 1440 ft | 153 kts | 233° |
| 2026-04-22 20:34 | 53.67461 | 10.07796 | 1257 ft | 142 kts | 233° |
| 2026-04-22 20:34 | 53.66850 | 10.06554 | 1064 ft | 134 kts | 233° |
| 2026-04-22 20:35 | 53.66256 | 10.05348 | 892 ft | 134 kts | 233° |
| 2026-04-22 20:35 | 53.65663 | 10.04144 | 720 ft | 134 kts | 233° |
| 2026-04-22 20:35 | 53.65068 | 10.02937 | 538 ft | 134 kts | 232° |
| 2026-04-22 20:35 | 53.64472 | 10.01728 | 361 ft | 134 kts | 232° |
| 2026-04-22 20:36 | 53.63872 | 10.00521 | 179 ft | 135 kts | 231° |
| 2026-04-22 20:36 | 53.63265 | 9.99304 | 51 ft | 130 kts | 232° |
| 2026-04-22 20:36 | 53.62772 | 9.98286 | 47 ft | 97 kts | 230° |
| 2026-04-22 20:36 | 53.62397 | 9.97526 | 43 ft | 70 kts | 230° |
| 2026-04-22 20:37 | 53.62263 | 9.97359 | 45 ft | 12 kts | 163° |
| 2026-04-22 20:37 | 53.62198 | 9.97434 | 47 ft | 10 kts | 126° |
| 2026-04-22 20:37 | 53.62182 | 9.97545 | 52 ft | 11 kts | 87° |
| 2026-04-22 20:37 | 53.62222 | 9.97669 | 47 ft | 13 kts | 51° |
| 2026-04-22 20:38 | 53.62290 | 9.97806 | 49 ft | 20 kts | 50° |
| 2026-04-22 20:38 | 53.62384 | 9.97996 | 49 ft | 23 kts | 50° |
| 2026-04-22 20:38 | 53.62504 | 9.98188 | 48 ft | 25 kts | 40° |
| 2026-04-22 20:38 | 53.62621 | 9.98412 | 51 ft | 26 kts | 50° |
| 2026-04-22 20:39 | 53.62741 | 9.98655 | 49 ft | 28 kts | 50° |
| 2026-04-22 20:39 | 53.62865 | 9.98905 | 53 ft | 24 kts | 50° |
| 2026-04-22 20:39 | 53.62973 | 9.99128 | 50 ft | 25 kts | 49° |
| 2026-04-22 20:39 | 53.63087 | 9.99367 | 47 ft | 27 kts | 56° |
| 2026-04-22 20:40 | 53.63191 | 9.99607 | 47 ft | 18 kts | 50° |
| 2026-04-22 20:40 | 53.63225 | 9.99732 | 49 ft | 11 kts | 107° |
| 2026-04-22 20:40 | 53.63157 | 9.99816 | 50 ft | 14 kts | 153° |
| 2026-04-22 20:40 | 53.63065 | 9.99896 | 49 ft | 16 kts | 152° |
| 2026-04-22 20:41 | 53.62963 | 9.99985 | 55 ft | 11 kts | 145° |
| 2026-04-22 20:41 | 53.62961 | 10.00104 | 49 ft | 11 kts | 51° |
| 2026-04-22 20:41 | 53.63032 | 10.00187 | 53 ft | 13 kts | 33° |
| 2026-04-22 20:41 | 53.63046 | 10.00220 | 55 ft | 2 kts | 72° |
| 2026-04-22 20:42 | 53.63032 | 10.00285 | 53 ft | 8 kts | 119° |
| 2026-04-22 20:42 | 53.63014 | 10.00334 | 49 ft | 2 kts | 122° |
| 2026-04-22 20:42 | 53.63010 | 10.00345 | 54 ft | 0 kts | 122° |